Darstellungsparameter: Aktuell verwendete Einstellungen:
Skalierung der Graphiken ... ?
xyx+y,   Skalierungsfaktor:      Skalierung: Modus: x, Faktor: 1
Darstellungszeitraum ... ?
Vom - - bis: - -   Zeitraum: 29.04.2019 - 03.05.2019
Min/Max/Avg-Anzeige ... ?
Zeige MMA aktuell
Zeige MMA Monat
Zeige MMA alles
Zeige --A aktuell
Zeige --A Monat
Zeige --A alles
Keine MMA-Anzeige
MMA:
Average (ber die Originaldaten)
MMA-Basis: 29.04.2019 - 03.05.2019
Quicknavigation für Darstellung... ?
Tage:      1T, 2T, 3T, 5T -1T -2T -3T -5T +1T +2T +3T +5T
Wochen: 1W, 2W, 3W -1W -2W -3W +1W +2W +3W
Monate: 1M, 3M, 6M -1M -3M -6M +1M +3M +6M
Jahre:    1J, 3J, 5J, 10J -1J -3J -5J -10J +1J +3J +5J +10J
Nutze für die Darstellung ... ?
Originaldaten oder Mittelwerte auf ...
Stundenbasis Tagesbasis Wochenbasis
Monatsbasis Jahresbasis      Datenbasis: Original-Daten
Darstellen als:
Statistik (Auto) Statistik J:M      Darstellung:
Zur Graphik,    zurück zur Übersicht aller Sensoren.
 
Tabellarische Datenbersicht: ?
 
Sensor: Nr:Datum:Temp:Abs-Feuchte:Windchill:Wind:
Aussen-T/F 1 29-04-2019 00:00:00 4.7 C 6.19 g/m*3 4.7 C 0 km/h
2 29-04-2019 00:05:00 4.7 C 6.19 g/m*3 4.7 C 0 km/h
3 29-04-2019 00:10:00 4.7 C 6.26 g/m*3 4.7 C 0 km/h
4 29-04-2019 00:15:00 4.6 C 6.15 g/m*3 4.6 C 0 km/h
5 29-04-2019 00:20:00 4.5 C 6.11 g/m*3 4.5 C 0 km/h
6 29-04-2019 00:25:00 4.4 C 6.07 g/m*3 4.4 C 0 km/h
7 29-04-2019 00:30:00 4.3 C 6.1 g/m*3 4.3 C 0 km/h
8 29-04-2019 00:35:00 4.3 C 6.1 g/m*3 4.3 C 0 km/h
9 29-04-2019 00:40:00 4.2 C 6.06 g/m*3 4.2 C 0 km/h
10 29-04-2019 00:45:00 4.2 C 6.06 g/m*3 4.2 C 0 km/h
11 29-04-2019 00:50:00 4.2 C 6.06 g/m*3 4.2 C 0 km/h
12 29-04-2019 00:55:00 4.2 C 6.06 g/m*3 4.2 C 0 km/h
13 29-04-2019 01:00:00 4.3 C 6.1 g/m*3 4.3 C 0 km/h
14 29-04-2019 01:05:00 4.4 C 6.14 g/m*3 4.4 C 0 km/h
15 29-04-2019 01:10:00 4.3 C 6.1 g/m*3 4.3 C 0 km/h
16 29-04-2019 01:15:00 4.3 C 6.1 g/m*3 4.3 C 0 km/h
17 29-04-2019 01:20:00 4.3 C 6.1 g/m*3 4.3 C 0 km/h
18 29-04-2019 01:25:00 4.2 C 6.06 g/m*3 4.2 C 0 km/h
19 29-04-2019 01:30:00 4 C 5.98 g/m*3 4 C 0 km/h
20 29-04-2019 01:35:00 3.9 C 5.94 g/m*3 3.9 C 0 km/h
21 29-04-2019 01:40:00 3.8 C 5.9 g/m*3 3.8 C 0 km/h
22 29-04-2019 01:45:00 3.7 C 5.86 g/m*3 3.7 C 0 km/h
23 29-04-2019 01:50:00 3.6 C 5.82 g/m*3 3.6 C 0 km/h
24 29-04-2019 01:55:00 3.6 C 5.82 g/m*3 3.6 C 0 km/h
25 29-04-2019 02:00:00 3.7 C 5.92 g/m*3 3.7 C 0 km/h
Sensor: Nr:Datum:Temp:Abs-Feuchte:Windchill:Wind:
Aussen-T/F 26 29-04-2019 02:05:00 3.6 C 5.88 g/m*3 3.6 C 0 km/h
27 29-04-2019 02:10:00 3.6 C 5.88 g/m*3 3.6 C 0 km/h
28 29-04-2019 02:15:00 3.4 C 5.74 g/m*3 3.4 C 0 km/h
29 29-04-2019 02:20:00 3.3 C 5.7 g/m*3 3.3 C 0 km/h
30 29-04-2019 02:25:00 3.3 C 5.7 g/m*3 3.3 C 0 km/h
31 29-04-2019 02:30:00 3.3 C 5.76 g/m*3 3.3 C 0 km/h
32 29-04-2019 02:35:00 3.3 C 5.76 g/m*3 3.3 C 0 km/h
33 29-04-2019 02:40:00 3.3 C 5.76 g/m*3 3.3 C 0 km/h
34 29-04-2019 02:45:00 3.4 C 5.8 g/m*3 3.4 C 0 km/h
35 29-04-2019 02:50:00 3.4 C 5.8 g/m*3 3.4 C 0 km/h
36 29-04-2019 02:55:00 3.5 C 5.84 g/m*3 3.5 C 0 km/h
37 29-04-2019 03:00:00 3.5 C 5.84 g/m*3 3.5 C 0 km/h
38 29-04-2019 03:05:00 3.5 C 5.84 g/m*3 3.5 C 0 km/h
39 29-04-2019 03:10:00 3.6 C 5.88 g/m*3 3.6 C 0 km/h
40 29-04-2019 03:15:00 3.6 C 5.88 g/m*3 3.6 C 0 km/h
41 29-04-2019 03:20:00 3.7 C 5.92 g/m*3 3.7 C 0 km/h
42 29-04-2019 03:25:00 3.7 C 5.92 g/m*3 3.7 C 0 km/h
43 29-04-2019 03:30:00 3.7 C 5.92 g/m*3 3.7 C 0 km/h
44 29-04-2019 03:35:00 3.8 C 5.96 g/m*3 3.8 C 0 km/h
45 29-04-2019 03:40:00 3.8 C 5.96 g/m*3 3.8 C 0 km/h
46 29-04-2019 03:45:00 3.8 C 5.96 g/m*3 3.8 C 0 km/h
47 29-04-2019 03:50:00 3.7 C 5.92 g/m*3 3.7 C 0 km/h
48 29-04-2019 03:55:00 3.7 C 5.92 g/m*3 3.7 C 0 km/h
49 29-04-2019 04:00:00 3.7 C 5.92 g/m*3 3.7 C 0 km/h
50 29-04-2019 04:05:00 3.6 C 5.88 g/m*3 3.6 C 0 km/h
Sensor: Nr:Datum:Temp:Abs-Feuchte:Windchill:Wind:
Aussen-T/F 51 29-04-2019 04:10:00 3.6 C 5.88 g/m*3 3.6 C 0 km/h
52 29-04-2019 04:15:00 3.6 C 5.88 g/m*3 3.6 C 0 km/h
53 29-04-2019 04:20:00 3.6 C 5.88 g/m*3 3.6 C 0 km/h
54 29-04-2019 04:25:00 3.6 C 5.94 g/m*3 3.6 C 0 km/h
55 29-04-2019 04:30:00 3.6 C 5.94 g/m*3 3.6 C 0 km/h
56 29-04-2019 04:35:00 3.5 C 5.9 g/m*3 3.5 C 0 km/h
57 29-04-2019 04:40:00 3.4 C 5.86 g/m*3 3.4 C 0 km/h
58 29-04-2019 04:45:00 3.4 C 5.86 g/m*3 3.4 C 0 km/h
59 29-04-2019 04:50:00 3.4 C 5.86 g/m*3 3.4 C 0 km/h
60 29-04-2019 04:55:00 3.5 C 5.9 g/m*3 3.5 C 0 km/h
61 29-04-2019 05:00:00 3.5 C 5.9 g/m*3 3.5 C 4.8 km/h
62 29-04-2019 05:05:00 3.5 C 5.9 g/m*3 3.5 C 3.2 km/h
63 29-04-2019 05:10:00 3.4 C 5.86 g/m*3 3.4 C 3.2 km/h
64 29-04-2019 05:15:00 3.4 C 5.86 g/m*3 1.75 C 6.4 km/h
65 29-04-2019 05:20:00 3.4 C 5.86 g/m*3 1.75 C 6.4 km/h
66 29-04-2019 05:25:00 3.4 C 5.86 g/m*3 3.4 C 1.6 km/h
67 29-04-2019 05:30:00 3.3 C 5.82 g/m*3 1.63 C 6.4 km/h
68 29-04-2019 05:35:00 3.3 C 5.82 g/m*3 3.3 C 3.2 km/h
69 29-04-2019 05:40:00 3.3 C 5.82 g/m*3 1.63 C 6.4 km/h
70 29-04-2019 05:45:00 3.3 C 5.82 g/m*3 3.3 C 1.6 km/h
71 29-04-2019 05:50:00 3.3 C 5.82 g/m*3 3.3 C 4.8 km/h
72 29-04-2019 05:55:00 3.2 C 5.79 g/m*3 3.2 C 3.2 km/h
73 29-04-2019 06:00:00 3.2 C 5.79 g/m*3 3.2 C 3.2 km/h
74 29-04-2019 06:05:00 3.2 C 5.79 g/m*3 3.2 C 3.2 km/h
75 29-04-2019 06:10:00 3.2 C 5.79 g/m*3 3.2 C 0 km/h
Sensor: Nr:Datum:Temp:Abs-Feuchte:Windchill:Wind:
Aussen-T/F 76 29-04-2019 06:15:00 3.2 C 5.79 g/m*3 3.2 C 0 km/h
77 29-04-2019 06:20:00 3.2 C 5.79 g/m*3 3.2 C 0 km/h
78 29-04-2019 06:25:00 3.2 C 5.79 g/m*3 3.2 C 0 km/h
79 29-04-2019 06:30:00 3.1 C 5.75 g/m*3 3.1 C 0 km/h
80 29-04-2019 06:35:00 3.1 C 5.75 g/m*3 3.1 C 1.6 km/h
81 29-04-2019 06:40:00 3.1 C 5.75 g/m*3 3.1 C 1.6 km/h
82 29-04-2019 06:45:00 3.1 C 5.75 g/m*3 3.1 C 1.6 km/h
83 29-04-2019 06:50:00 3.1 C 5.75 g/m*3 3.1 C 3.2 km/h
84 29-04-2019 06:55:00 3.1 C 5.75 g/m*3 3.1 C 3.2 km/h
85 29-04-2019 07:00:00 3.1 C 5.75 g/m*3 3.1 C 3.2 km/h
86 29-04-2019 07:05:00 3.1 C 5.75 g/m*3 3.1 C 0 km/h
87 29-04-2019 07:10:00 3.1 C 5.75 g/m*3 3.1 C 0 km/h
88 29-04-2019 07:15:00 3.1 C 5.75 g/m*3 3.1 C 0 km/h
89 29-04-2019 07:20:00 3.2 C 5.79 g/m*3 3.2 C 1.6 km/h
90 29-04-2019 07:25:00 3.2 C 5.79 g/m*3 3.2 C 0 km/h
91 29-04-2019 07:30:00 3.2 C 5.79 g/m*3 3.2 C 1.6 km/h
92 29-04-2019 07:35:00 3.3 C 5.82 g/m*3 3.3 C 1.6 km/h
93 29-04-2019 07:40:00 3.3 C 5.82 g/m*3 3.3 C 3.2 km/h
94 29-04-2019 07:45:00 3.3 C 5.82 g/m*3 3.3 C 1.6 km/h
95 29-04-2019 07:50:00 3.4 C 5.86 g/m*3 3.4 C 4.8 km/h
96 29-04-2019 07:55:00 3.4 C 5.86 g/m*3 3.4 C 3.2 km/h
97 29-04-2019 08:00:00 3.5 C 5.9 g/m*3 3.5 C 4.8 km/h
98 29-04-2019 08:05:00 3.6 C 5.94 g/m*3 3.6 C 3.2 km/h
99 29-04-2019 08:10:00 3.6 C 5.94 g/m*3 3.6 C 3.2 km/h
100 29-04-2019 08:15:00 3.7 C 5.98 g/m*3 3.7 C 3.2 km/h
Sensor: Nr:Datum:Temp:Abs-Feuchte:Windchill:Wind:
Aussen-T/F 101 29-04-2019 08:20:00 3.7 C 5.98 g/m*3 3.7 C 4.8 km/h
102 29-04-2019 08:25:00 3.8 C 6.09 g/m*3 3.8 C 3.2 km/h
103 29-04-2019 08:30:00 3.9 C 6.13 g/m*3 3.9 C 4.8 km/h
104 29-04-2019 08:35:00 3.9 C 6.06 g/m*3 3.9 C 3.2 km/h
105 29-04-2019 08:40:00 4 C 6.1 g/m*3 2.44 C 6.4 km/h
106 29-04-2019 08:45:00 4.1 C 6.21 g/m*3 2.55 C 6.4 km/h
107 29-04-2019 08:50:00 4.2 C 6.25 g/m*3 4.2 C 4.8 km/h
108 29-04-2019 08:55:00 4.3 C 6.29 g/m*3 4.3 C 3.2 km/h
109 29-04-2019 09:00:00 4.4 C 6.33 g/m*3 4.4 C 4.8 km/h
110 29-04-2019 09:05:00 4.5 C 6.38 g/m*3 3.02 C 6.4 km/h
111 29-04-2019 09:10:00 4.6 C 6.42 g/m*3 3.13 C 6.4 km/h
112 29-04-2019 09:15:00 4.7 C 6.46 g/m*3 3.25 C 6.4 km/h
113 29-04-2019 09:20:00 4.8 C 6.5 g/m*3 4.8 C 4.8 km/h
114 29-04-2019 09:25:00 5 C 6.59 g/m*3 5 C 3.2 km/h
115 29-04-2019 09:30:00 5.1 C 6.63 g/m*3 5.1 C 4.8 km/h
116 29-04-2019 09:35:00 5.2 C 6.68 g/m*3 5.2 C 4.8 km/h
117 29-04-2019 09:40:00 5.3 C 6.72 g/m*3 5.3 C 1.6 km/h
118 29-04-2019 09:45:00 5.4 C 6.77 g/m*3 5.4 C 3.2 km/h
119 29-04-2019 09:50:00 5.5 C 6.81 g/m*3 5.5 C 1.6 km/h
120 29-04-2019 09:55:00 5.4 C 6.77 g/m*3 5.4 C 1.6 km/h
121 29-04-2019 10:00:00 5.7 C 6.83 g/m*3 5.7 C 3.2 km/h
122 29-04-2019 10:05:00 5.8 C 6.88 g/m*3 5.8 C 3.2 km/h
123 29-04-2019 10:10:00 5.9 C 6.92 g/m*3 5.9 C 3.2 km/h
124 29-04-2019 10:15:00 6.2 C 7.06 g/m*3 4.98 C 6.4 km/h
125 29-04-2019 10:20:00 6.3 C 7.11 g/m*3 6.3 C 3.2 km/h
Sensor: Nr:Datum:Temp:Abs-Feuchte:Windchill:Wind:
Aussen-T/F 126 29-04-2019 10:25:00 6.5 C 7.2 g/m*3 6.5 C 1.6 km/h
127 29-04-2019 10:30:00 6.6 C 7.17 g/m*3 6.6 C 0 km/h
128 29-04-2019 10:35:00 6.8 C 7.27 g/m*3 6.8 C 0 km/h
129 29-04-2019 10:40:00 6.9 C 7.31 g/m*3 6.9 C 3.2 km/h
130 29-04-2019 10:45:00 7.1 C 7.33 g/m*3 7.1 C 1.6 km/h
131 29-04-2019 10:50:00 7.2 C 7.38 g/m*3 7.2 C 3.2 km/h
132 29-04-2019 10:55:00 7.2 C 7.3 g/m*3 7.2 C 0 km/h
133 29-04-2019 11:00:00 7.4 C 7.4 g/m*3 7.4 C 0 km/h
134 29-04-2019 11:05:00 7.6 C 7.49 g/m*3 7.6 C 3.2 km/h
135 29-04-2019 11:10:00 7.8 C 7.59 g/m*3 7.8 C 3.2 km/h
136 29-04-2019 11:15:00 8 C 7.61 g/m*3 8 C 3.2 km/h
137 29-04-2019 11:20:00 8.2 C 7.7 g/m*3 8.2 C 0 km/h
138 29-04-2019 11:25:00 8.4 C 7.8 g/m*3 8.4 C 3.2 km/h
139 29-04-2019 11:30:00 8.8 C 8.01 g/m*3 8.8 C 3.2 km/h
140 29-04-2019 11:35:00 9.1 C 8.07 g/m*3 9.1 C 0 km/h
141 29-04-2019 11:40:00 9.4 C 8.14 g/m*3 9.4 C 4.8 km/h
142 29-04-2019 11:45:00 9.7 C 8.11 g/m*3 9.7 C 4.8 km/h
143 29-04-2019 11:50:00 9.9 C 8.12 g/m*3 9.9 C 1.6 km/h
144 29-04-2019 11:55:00 10.1 C 8.13 g/m*3 10.1 C 1.6 km/h
145 29-04-2019 12:00:00 10.4 C 8.19 g/m*3 10.4 C 1.6 km/h
146 29-04-2019 12:05:00 10.7 C 8.25 g/m*3 10.7 C 3.2 km/h
147 29-04-2019 12:10:00 11.1 C 8.36 g/m*3 11.1 C 4.8 km/h
148 29-04-2019 12:15:00 11.3 C 8.16 g/m*3 11.3 C 8.1 km/h
149 29-04-2019 12:20:00 11.5 C 8.06 g/m*3 11.5 C 3.2 km/h
150 29-04-2019 12:25:00 11.8 C 8.31 g/m*3 11.8 C 1.6 km/h
Sensor: Nr:Datum:Temp:Abs-Feuchte:Windchill:Wind:
Aussen-T/F 151 29-04-2019 12:30:00 12.1 C 8.04 g/m*3 12.1 C 6.4 km/h
152 29-04-2019 12:35:00 12.3 C 8.25 g/m*3 12.3 C 4.8 km/h
153 29-04-2019 12:40:00 12.6 C 7.97 g/m*3 12.6 C 6.4 km/h
154 29-04-2019 12:45:00 12.8 C 8.18 g/m*3 12.8 C 4.8 km/h
155 29-04-2019 12:50:00 13.2 C 8.15 g/m*3 13.2 C 6.4 km/h
156 29-04-2019 12:55:00 13.3 C 7.97 g/m*3 13.3 C 14.5 km/h
157 29-04-2019 13:00:00 13.5 C 7.84 g/m*3 13.5 C 14.5 km/h
158 29-04-2019 13:05:00 13.7 C 7.7 g/m*3 13.7 C 8.1 km/h
159 29-04-2019 13:10:00 13.8 C 7.51 g/m*3 13.8 C 8.1 km/h
160 29-04-2019 13:15:00 13.9 C 7.55 g/m*3 13.9 C 8.1 km/h
161 29-04-2019 13:20:00 14 C 7.72 g/m*3 14 C 9.7 km/h
162 29-04-2019 13:25:00 14 C 7.72 g/m*3 14 C 9.7 km/h
163 29-04-2019 13:30:00 14 C 7.72 g/m*3 14 C 8.1 km/h
164 29-04-2019 13:35:00 14 C 7.72 g/m*3 14 C 6.4 km/h
165 29-04-2019 13:40:00 14 C 7.48 g/m*3 14 C 9.7 km/h
166 29-04-2019 13:45:00 14.2 C 7.69 g/m*3 14.2 C 8.1 km/h
167 29-04-2019 13:50:00 14.3 C 7.49 g/m*3 14.3 C 9.7 km/h
168 29-04-2019 13:55:00 14.3 C 7.37 g/m*3 14.3 C 8.1 km/h
169 29-04-2019 14:00:00 14.3 C 7.25 g/m*3 14.3 C 9.7 km/h
170 29-04-2019 14:05:00 14.4 C 7.42 g/m*3 14.4 C 6.4 km/h
171 29-04-2019 14:10:00 14.4 C 7.42 g/m*3 14.4 C 9.7 km/h
172 29-04-2019 14:15:00 14.7 C 7.18 g/m*3 14.7 C 11.3 km/h
173 29-04-2019 14:20:00 14.7 C 7.05 g/m*3 14.7 C 8.1 km/h
174 29-04-2019 14:25:00 14.8 C 7.47 g/m*3 14.8 C 11.3 km/h
175 29-04-2019 14:30:00 14.8 C 7.22 g/m*3 14.8 C 12.9 km/h
Sensor: Nr:Datum:Temp:Abs-Feuchte:Windchill:Wind:
Aussen-T/F 176 29-04-2019 14:35:00 14.9 C 7.14 g/m*3 14.9 C 8.1 km/h
177 29-04-2019 14:40:00 15.2 C 7.27 g/m*3 15.2 C 11.3 km/h
178 29-04-2019 14:45:00 15.3 C 7.18 g/m*3 15.3 C 9.7 km/h
179 29-04-2019 14:50:00 15.3 C 7.18 g/m*3 15.3 C 9.7 km/h
180 29-04-2019 14:55:00 15.2 C 7.14 g/m*3 15.2 C 8.1 km/h
181 29-04-2019 15:00:00 15.2 C 7.27 g/m*3 15.2 C 8.1 km/h
182 29-04-2019 15:05:00 15.3 C 7.44 g/m*3 15.3 C 11.3 km/h
183 29-04-2019 15:10:00 15.3 C 7.18 g/m*3 15.3 C 12.9 km/h
184 29-04-2019 15:15:00 15.3 C 7.44 g/m*3 15.3 C 8.1 km/h
185 29-04-2019 15:20:00 15.2 C 7.4 g/m*3 15.2 C 12.9 km/h
186 29-04-2019 15:25:00 15.3 C 7.44 g/m*3 15.3 C 11.3 km/h
187 29-04-2019 15:30:00 15.3 C 7.18 g/m*3 15.3 C 9.7 km/h
188 29-04-2019 15:35:00 15.3 C 7.31 g/m*3 15.3 C 6.4 km/h
189 29-04-2019 15:40:00 15.2 C 7.27 g/m*3 15.2 C 8.1 km/h
190 29-04-2019 15:45:00 15.3 C 7.57 g/m*3 15.3 C 6.4 km/h
191 29-04-2019 15:50:00 15.4 C 7.36 g/m*3 15.4 C 11.3 km/h
192 29-04-2019 15:55:00 15.4 C 7.36 g/m*3 15.4 C 9.7 km/h
193 29-04-2019 16:00:00 15.3 C 7.05 g/m*3 15.3 C 16.1 km/h
194 29-04-2019 16:05:00 15.3 C 7.05 g/m*3 15.3 C 16.1 km/h
195 29-04-2019 16:10:00 15.3 C 7.18 g/m*3 15.3 C 8.1 km/h
196 29-04-2019 16:15:00 15.3 C 7.18 g/m*3 15.3 C 9.7 km/h
197 29-04-2019 16:20:00 15.3 C 7.31 g/m*3 15.3 C 12.9 km/h
198 29-04-2019 16:25:00 15.3 C 7.18 g/m*3 15.3 C 9.7 km/h
199 29-04-2019 16:30:00 15.3 C 7.18 g/m*3 15.3 C 14.5 km/h
200 29-04-2019 16:35:00 15.3 C 7.05 g/m*3 15.3 C 8.1 km/h
Sensor: Nr:Datum:Temp:Abs-Feuchte:Windchill:Wind:
Aussen-T/F 201 29-04-2019 16:40:00 15.3 C 7.18 g/m*3 15.3 C 9.7 km/h
202 29-04-2019 16:45:00 15.3 C 7.57 g/m*3 15.3 C 12.9 km/h
203 29-04-2019 16:50:00 15.4 C 7.36 g/m*3 15.4 C 8.1 km/h
204 29-04-2019 16:55:00 15.4 C 7.49 g/m*3 15.4 C 11.3 km/h
205 29-04-2019 17:00:00 15.4 C 7.36 g/m*3 15.4 C 12.9 km/h
206 29-04-2019 17:05:00 15.4 C 7.49 g/m*3 15.4 C 8.1 km/h
207 29-04-2019 17:10:00 15.4 C 7.36 g/m*3 15.4 C 8.1 km/h
208 29-04-2019 17:15:00 15.4 C 7.23 g/m*3 15.4 C 11.3 km/h
209 29-04-2019 17:20:00 15.4 C 7.09 g/m*3 15.4 C 11.3 km/h
210 29-04-2019 17:25:00 15.4 C 7.23 g/m*3 15.4 C 14.5 km/h
211 29-04-2019 17:30:00 15.3 C 7.44 g/m*3 15.3 C 9.7 km/h
212 29-04-2019 17:35:00 15.3 C 7.31 g/m*3 15.3 C 12.9 km/h
213 29-04-2019 17:40:00 15.3 C 7.31 g/m*3 15.3 C 11.3 km/h
214 29-04-2019 17:45:00 15.2 C 7.27 g/m*3 15.2 C 14.5 km/h
215 29-04-2019 17:50:00 15.2 C 7.14 g/m*3 15.2 C 11.3 km/h
216 29-04-2019 17:55:00 15.1 C 7.22 g/m*3 15.1 C 14.5 km/h
217 29-04-2019 18:00:00 14.9 C 7.26 g/m*3 14.9 C 11.3 km/h
218 29-04-2019 18:05:00 14.7 C 7.3 g/m*3 14.7 C 11.3 km/h
219 29-04-2019 18:10:00 14.4 C 7.42 g/m*3 14.4 C 8.1 km/h
220 29-04-2019 18:15:00 14.2 C 7.69 g/m*3 14.2 C 3.2 km/h
221 29-04-2019 18:20:00 13.9 C 7.55 g/m*3 13.9 C 8.1 km/h
222 29-04-2019 18:25:00 13.7 C 7.7 g/m*3 13.7 C 11.3 km/h
223 29-04-2019 18:30:00 13.6 C 8.12 g/m*3 13.6 C 9.7 km/h
224 29-04-2019 18:35:00 13.4 C 8.37 g/m*3 13.4 C 9.7 km/h
225 29-04-2019 18:40:00 13.3 C 8.9 g/m*3 13.3 C 0 km/h
Sensor: Nr:Datum:Temp:Abs-Feuchte:Windchill:Wind:
Aussen-T/F 226 29-04-2019 18:45:00 13.1 C 8.79 g/m*3 13.1 C 11.3 km/h
227 29-04-2019 18:50:00 12.7 C 8.91 g/m*3 12.7 C 3.2 km/h
228 29-04-2019 18:55:00 12.4 C 9.07 g/m*3 12.4 C 0 km/h
229 29-04-2019 19:00:00 12.2 C 9.06 g/m*3 12.2 C 0 km/h
230 29-04-2019 19:05:00 11.9 C 9.11 g/m*3 11.9 C 0 km/h
231 29-04-2019 19:10:00 11.7 C 8.99 g/m*3 11.7 C 0 km/h
232 29-04-2019 19:15:00 11.4 C 8.93 g/m*3 11.4 C 0 km/h
233 29-04-2019 19:20:00 11.2 C 8.92 g/m*3 11.2 C 4.8 km/h
234 29-04-2019 19:25:00 11 C 8.81 g/m*3 11 C 3.2 km/h
235 29-04-2019 19:30:00 10.9 C 8.85 g/m*3 10.9 C 0 km/h
236 29-04-2019 19:35:00 10.7 C 8.74 g/m*3 10.7 C 1.6 km/h
237 29-04-2019 19:40:00 10.6 C 8.78 g/m*3 10.6 C 1.6 km/h
238 29-04-2019 19:45:00 10.5 C 8.73 g/m*3 10.5 C 1.6 km/h
239 29-04-2019 19:50:00 10.4 C 8.67 g/m*3 10.4 C 1.6 km/h
240 29-04-2019 19:55:00 10.4 C 8.67 g/m*3 10.4 C 0 km/h
241 29-04-2019 20:00:00 10.3 C 8.71 g/m*3 10.3 C 0 km/h
242 29-04-2019 20:05:00 10.3 C 8.71 g/m*3 10.3 C 0 km/h
243 29-04-2019 20:10:00 10.3 C 8.71 g/m*3 10.3 C 0 km/h
244 29-04-2019 20:15:00 10.3 C 8.71 g/m*3 10.3 C 0 km/h
245 29-04-2019 20:20:00 10.2 C 8.66 g/m*3 10.2 C 0 km/h
246 29-04-2019 20:25:00 10.3 C 8.81 g/m*3 10.3 C 0 km/h
247 29-04-2019 20:30:00 10.3 C 8.81 g/m*3 10.3 C 0 km/h
248 29-04-2019 20:35:00 10.2 C 8.76 g/m*3 10.2 C 0 km/h
249 29-04-2019 20:40:00 10.2 C 8.76 g/m*3 10.2 C 0 km/h
250 29-04-2019 20:45:00 10.2 C 8.76 g/m*3 10.2 C 0 km/h
Sensor: Nr:Datum:Temp:Abs-Feuchte:Windchill:Wind:
Aussen-T/F 251 29-04-2019 20:50:00 10.2 C 8.76 g/m*3 10.2 C 0 km/h
252 29-04-2019 20:55:00 10.2 C 8.76 g/m*3 10.2 C 0 km/h
253 29-04-2019 21:00:00 10.2 C 8.76 g/m*3 10.2 C 0 km/h
254 29-04-2019 21:05:00 10.1 C 8.79 g/m*3 10.1 C 0 km/h
255 29-04-2019 21:10:00 10.1 C 8.79 g/m*3 10.1 C 0 km/h
256 29-04-2019 21:15:00 10.1 C 8.79 g/m*3 10.1 C 0 km/h
257 29-04-2019 21:20:00 10.1 C 8.79 g/m*3 10.1 C 1.6 km/h
258 29-04-2019 21:25:00 10.1 C 8.7 g/m*3 10.1 C 0 km/h
259 29-04-2019 21:30:00 10.1 C 8.7 g/m*3 10.1 C 0 km/h
260 29-04-2019 21:35:00 10.1 C 8.7 g/m*3 10.1 C 0 km/h
261 29-04-2019 21:40:00 10.1 C 8.7 g/m*3 10.1 C 1.6 km/h
262 29-04-2019 21:45:00 10.2 C 8.76 g/m*3 10.2 C 0 km/h
263 29-04-2019 21:50:00 10.2 C 8.76 g/m*3 10.2 C 0 km/h
264 29-04-2019 21:55:00 10.2 C 8.76 g/m*3 10.2 C 1.6 km/h
265 29-04-2019 22:00:00 10.2 C 8.76 g/m*3 10.2 C 0 km/h
266 29-04-2019 22:05:00 10.2 C 8.76 g/m*3 10.2 C 4.8 km/h
267 29-04-2019 22:10:00 10.2 C 8.76 g/m*3 10.2 C 0 km/h
268 29-04-2019 22:15:00 10.3 C 8.81 g/m*3 10.3 C 0 km/h
269 29-04-2019 22:20:00 10.3 C 8.81 g/m*3 10.3 C 4.8 km/h
270 29-04-2019 22:25:00 10.2 C 8.76 g/m*3 10.2 C 1.6 km/h
271 29-04-2019 22:30:00 10.2 C 8.76 g/m*3 10.2 C 0 km/h
272 29-04-2019 22:35:00 10.3 C 8.81 g/m*3 10.3 C 1.6 km/h
273 29-04-2019 22:40:00 10.3 C 8.81 g/m*3 10.3 C 3.2 km/h
274 29-04-2019 22:45:00 10.3 C 8.71 g/m*3 8.78 C 11.3 km/h
275 29-04-2019 22:50:00 10.3 C 8.71 g/m*3 10.3 C 3.2 km/h
Sensor: Nr:Datum:Temp:Abs-Feuchte:Windchill:Wind:
Aussen-T/F 276 29-04-2019 22:55:00 10.3 C 8.71 g/m*3 10.3 C 1.6 km/h
277 29-04-2019 23:00:00 10.4 C 8.67 g/m*3 10.4 C 3.2 km/h
278 29-04-2019 23:05:00 10.5 C 8.73 g/m*3 10.5 C 0 km/h
279 29-04-2019 23:10:00 10.6 C 8.78 g/m*3 10.6 C 4.8 km/h
280 29-04-2019 23:15:00 10.6 C 8.69 g/m*3 10.6 C 1.6 km/h
281 29-04-2019 23:20:00 10.7 C 8.84 g/m*3 10.7 C 0 km/h
282 29-04-2019 23:25:00 10.7 C 8.74 g/m*3 10.7 C 3.2 km/h
283 29-04-2019 23:30:00 10.7 C 8.74 g/m*3 10.7 C 3.2 km/h
284 29-04-2019 23:35:00 10.7 C 8.74 g/m*3 10.7 C 0 km/h
285 29-04-2019 23:40:00 10.8 C 8.9 g/m*3 10.8 C 0 km/h
286 29-04-2019 23:45:00 10.8 C 8.9 g/m*3 10.8 C 0 km/h
287 29-04-2019 23:50:00 10.7 C 8.84 g/m*3 10.7 C 0 km/h
288 29-04-2019 23:55:00 10.7 C 8.74 g/m*3 10.7 C 4.8 km/h
289 30-04-2019 00:00:00 10.8 C 8.8 g/m*3 10.8 C 0 km/h
290 30-04-2019 00:05:00 10.8 C 8.8 g/m*3 10.8 C 0 km/h
291 30-04-2019 00:10:00 10.8 C 8.8 g/m*3 10.8 C 1.6 km/h
292 30-04-2019 00:15:00 10.8 C 8.7 g/m*3 10.8 C 1.6 km/h
293 30-04-2019 00:20:00 10.9 C 8.65 g/m*3 10.9 C 3.2 km/h
294 30-04-2019 00:25:00 11 C 8.71 g/m*3 11 C 4.8 km/h
295 30-04-2019 00:30:00 11.1 C 8.76 g/m*3 11.1 C 3.2 km/h
296 30-04-2019 00:35:00 11.1 C 8.76 g/m*3 11.1 C 1.6 km/h
297 30-04-2019 00:40:00 11.1 C 8.76 g/m*3 11.1 C 3.2 km/h
298 30-04-2019 00:45:00 11.1 C 8.66 g/m*3 11.1 C 8.1 km/h
299 30-04-2019 00:50:00 11.1 C 8.66 g/m*3 11.1 C 8.1 km/h
300 30-04-2019 00:55:00 11.2 C 8.72 g/m*3 11.2 C 6.4 km/h
Sensor: Nr:Datum:Temp:Abs-Feuchte:Windchill:Wind:
Aussen-T/F 301 30-04-2019 01:00:00 11.2 C 8.72 g/m*3 11.2 C 8.1 km/h
302 30-04-2019 01:05:00 11.2 C 8.72 g/m*3 11.2 C 8.1 km/h
303 30-04-2019 01:10:00 11.2 C 8.72 g/m*3 11.2 C 6.4 km/h
304 30-04-2019 01:15:00 11.2 C 8.72 g/m*3 11.2 C 6.4 km/h
305 30-04-2019 01:20:00 11.2 C 8.72 g/m*3 11.2 C 8.1 km/h
306 30-04-2019 01:25:00 11.2 C 8.72 g/m*3 11.2 C 3.2 km/h
307 30-04-2019 01:30:00 11.2 C 8.72 g/m*3 11.2 C 3.2 km/h
308 30-04-2019 01:35:00 11.2 C 8.72 g/m*3 11.2 C 3.2 km/h
309 30-04-2019 01:40:00 11.1 C 8.66 g/m*3 11.1 C 6.4 km/h
310 30-04-2019 01:45:00 11.1 C 8.76 g/m*3 11.1 C 1.6 km/h
311 30-04-2019 01:50:00 11.1 C 8.76 g/m*3 11.1 C 1.6 km/h
312 30-04-2019 01:55:00 11.1 C 8.76 g/m*3 11.1 C 4.8 km/h
313 30-04-2019 02:00:00 11 C 8.71 g/m*3 11 C 0 km/h
314 30-04-2019 02:05:00 11 C 8.71 g/m*3 11 C 0 km/h
315 30-04-2019 02:10:00 10.9 C 8.75 g/m*3 10.9 C 0 km/h
316 30-04-2019 02:15:00 10.9 C 8.75 g/m*3 10.9 C 4.8 km/h
317 30-04-2019 02:20:00 10.9 C 8.75 g/m*3 10.9 C 1.6 km/h
318 30-04-2019 02:25:00 10.9 C 8.75 g/m*3 10.9 C 4.8 km/h
319 30-04-2019 02:30:00 10.8 C 8.7 g/m*3 10.8 C 4.8 km/h
320 30-04-2019 02:35:00 10.8 C 8.7 g/m*3 10.8 C 3.2 km/h
321 30-04-2019 02:40:00 10.8 C 8.7 g/m*3 9.93 C 8.1 km/h
322 30-04-2019 02:45:00 10.8 C 8.8 g/m*3 10.29 C 6.4 km/h
323 30-04-2019 02:50:00 10.7 C 8.74 g/m*3 9.81 C 8.1 km/h
324 30-04-2019 02:55:00 10.7 C 8.74 g/m*3 10.18 C 6.4 km/h
325 30-04-2019 03:00:00 10.7 C 8.74 g/m*3 9.81 C 8.1 km/h
Sensor: Nr:Datum:Temp:Abs-Feuchte:Windchill:Wind:
Aussen-T/F 326 30-04-2019 03:05:00 10.7 C 8.74 g/m*3 10.7 C 4.8 km/h
327 30-04-2019 03:10:00 10.7 C 8.74 g/m*3 10.7 C 1.6 km/h
328 30-04-2019 03:15:00 10.6 C 8.69 g/m*3 10.6 C 0 km/h
329 30-04-2019 03:20:00 10.6 C 8.69 g/m*3 10.6 C 4.8 km/h
330 30-04-2019 03:25:00 10.6 C 8.69 g/m*3 10.6 C 3.2 km/h
331 30-04-2019 03:30:00 10.6 C 8.69 g/m*3 10.06 C 6.4 km/h
332 30-04-2019 03:35:00 10.6 C 8.69 g/m*3 10.6 C 1.6 km/h
333 30-04-2019 03:40:00 10.6 C 8.69 g/m*3 10.6 C 0 km/h
334 30-04-2019 03:45:00 10.5 C 8.63 g/m*3 10.5 C 0 km/h
335 30-04-2019 03:50:00 10.5 C 8.63 g/m*3 10.5 C 3.2 km/h
336 30-04-2019 03:55:00 10.4 C 8.58 g/m*3 10.4 C 1.6 km/h
337 30-04-2019 04:00:00 10.4 C 8.58 g/m*3 10.4 C 0 km/h
338 30-04-2019 04:05:00 10.4 C 8.58 g/m*3 10.4 C 0 km/h
339 30-04-2019 04:10:00 10.4 C 8.58 g/m*3 10.4 C 0 km/h
340 30-04-2019 04:15:00 10.3 C 8.52 g/m*3 9.34 C 8.1 km/h
341 30-04-2019 04:20:00 10.3 C 8.52 g/m*3 10.3 C 1.6 km/h
342 30-04-2019 04:25:00 10.3 C 8.52 g/m*3 10.3 C 4.8 km/h
343 30-04-2019 04:30:00 10.3 C 8.43 g/m*3 10.3 C 1.6 km/h
344 30-04-2019 04:35:00 10.3 C 8.52 g/m*3 10.3 C 4.8 km/h
345 30-04-2019 04:40:00 10.3 C 8.52 g/m*3 10.3 C 0 km/h
346 30-04-2019 04:45:00 10.3 C 8.52 g/m*3 10.3 C 4.8 km/h
347 30-04-2019 04:50:00 10.2 C 8.47 g/m*3 10.2 C 1.6 km/h
348 30-04-2019 04:55:00 10.2 C 8.47 g/m*3 10.2 C 0 km/h
349 30-04-2019 05:00:00 10.2 C 8.47 g/m*3 9.22 C 8.1 km/h
350 30-04-2019 05:05:00 10.2 C 8.37 g/m*3 10.2 C 4.8 km/h
Sensor: Nr:Datum:Temp:Abs-Feuchte:Windchill:Wind:
Aussen-T/F 351 30-04-2019 05:10:00 10.2 C 8.37 g/m*3 9.22 C 8.1 km/h
352 30-04-2019 05:15:00 10.2 C 8.37 g/m*3 10.2 C 3.2 km/h
353 30-04-2019 05:20:00 10.2 C 8.37 g/m*3 10.2 C 4.8 km/h
354 30-04-2019 05:25:00 10.2 C 8.37 g/m*3 8.66 C 11.3 km/h
355 30-04-2019 05:30:00 10.2 C 8.37 g/m*3 10.2 C 1.6 km/h
356 30-04-2019 05:35:00 10.2 C 8.37 g/m*3 10.2 C 3.2 km/h
357 30-04-2019 05:40:00 10.2 C 8.37 g/m*3 9.6 C 6.4 km/h
358 30-04-2019 05:45:00 10.2 C 8.37 g/m*3 10.2 C 0 km/h
359 30-04-2019 05:50:00 10.1 C 8.32 g/m*3 9.48 C 6.4 km/h
360 30-04-2019 05:55:00 10.1 C 8.32 g/m*3 10.1 C 4.8 km/h
361 30-04-2019 06:00:00 10.1 C 8.32 g/m*3 9.1 C 8.1 km/h
362 30-04-2019 06:05:00 10.1 C 8.32 g/m*3 8.54 C 11.3 km/h
363 30-04-2019 06:10:00 10.1 C 8.32 g/m*3 9.1 C 8.1 km/h
364 30-04-2019 06:15:00 10.1 C 8.32 g/m*3 9.48 C 6.4 km/h
365 30-04-2019 06:20:00 10.1 C 8.42 g/m*3 10.1 C 4.8 km/h
366 30-04-2019 06:25:00 10.1 C 8.42 g/m*3 10.1 C 1.6 km/h
367 30-04-2019 06:30:00 10.1 C 8.42 g/m*3 10.1 C 0 km/h
368 30-04-2019 06:35:00 10 C 8.36 g/m*3 10 C 4.8 km/h
369 30-04-2019 06:40:00 10 C 8.36 g/m*3 10 C 0 km/h
370 30-04-2019 06:45:00 10 C 8.36 g/m*3 10 C 0 km/h
371 30-04-2019 06:50:00 10 C 8.46 g/m*3 10 C 0 km/h
372 30-04-2019 06:55:00 10 C 8.46 g/m*3 10 C 1.6 km/h
373 30-04-2019 07:00:00 10 C 8.46 g/m*3 10 C 1.6 km/h
374 30-04-2019 07:05:00 9.9 C 8.4 g/m*3 9.9 C 1.6 km/h
375 30-04-2019 07:10:00 9.9 C 8.4 g/m*3 9.9 C 1.6 km/h
Sensor: Nr:Datum:Temp:Abs-Feuchte:Windchill:Wind:
Aussen-T/F 376 30-04-2019 07:15:00 9.9 C 8.31 g/m*3 9.9 C 4.8 km/h
377 30-04-2019 07:20:00 10 C 8.36 g/m*3 8.99 C 8.1 km/h
378 30-04-2019 07:25:00 10 C 8.36 g/m*3 8.99 C 8.1 km/h
379 30-04-2019 07:30:00 10.1 C 8.42 g/m*3 9.48 C 6.4 km/h
380 30-04-2019 07:35:00 10.1 C 8.42 g/m*3 9.1 C 8.1 km/h
381 30-04-2019 07:40:00 10.2 C 8.37 g/m*3 9.22 C 8.1 km/h
382 30-04-2019 07:45:00 10.2 C 8.37 g/m*3 9.22 C 8.1 km/h
383 30-04-2019 07:50:00 10.3 C 8.33 g/m*3 9.72 C 6.4 km/h
384 30-04-2019 07:55:00 10.3 C 8.33 g/m*3 9.72 C 6.4 km/h
385 30-04-2019 08:00:00 10.4 C 8.38 g/m*3 10.4 C 4.8 km/h
386 30-04-2019 08:05:00 10.4 C 8.38 g/m*3 10.4 C 3.2 km/h
387 30-04-2019 08:10:00 10.5 C 8.34 g/m*3 9.57 C 8.1 km/h
388 30-04-2019 08:15:00 10.6 C 8.39 g/m*3 9.69 C 8.1 km/h
389 30-04-2019 08:20:00 10.6 C 8.39 g/m*3 10.6 C 4.8 km/h
390 30-04-2019 08:25:00 10.7 C 8.45 g/m*3 10.7 C 4.8 km/h
391 30-04-2019 08:30:00 10.7 C 8.35 g/m*3 9.81 C 8.1 km/h
392 30-04-2019 08:35:00 10.8 C 8.2 g/m*3 9.38 C 11.3 km/h
393 30-04-2019 08:40:00 10.9 C 8.16 g/m*3 10.9 C 4.8 km/h
394 30-04-2019 08:45:00 11 C 8.01 g/m*3 10.16 C 8.1 km/h
395 30-04-2019 08:50:00 11 C 8.01 g/m*3 9.21 C 14.5 km/h
396 30-04-2019 08:55:00 11.1 C 7.96 g/m*3 11.1 C 14.5 km/h
397 30-04-2019 09:00:00 11 C 7.81 g/m*3 9.88 C 9.7 km/h
398 30-04-2019 09:05:00 11.1 C 7.66 g/m*3 11.1 C 11.3 km/h
399 30-04-2019 09:10:00 11.2 C 7.91 g/m*3 11.2 C 12.9 km/h
400 30-04-2019 09:15:00 11.3 C 7.85 g/m*3 11.3 C 11.3 km/h
Sensor: Nr:Datum:Temp:Abs-Feuchte:Windchill:Wind:
Aussen-T/F 401 30-04-2019 09:20:00 11.4 C 7.9 g/m*3 11.4 C 9.7 km/h
402 30-04-2019 09:25:00 11.5 C 7.95 g/m*3 11.5 C 8.1 km/h
403 30-04-2019 09:30:00 11.6 C 8 g/m*3 11.6 C 6.4 km/h
404 30-04-2019 09:35:00 11.7 C 8.05 g/m*3 11.7 C 11.3 km/h
405 30-04-2019 09:40:00 11.7 C 7.95 g/m*3 11.7 C 11.3 km/h
406 30-04-2019 09:45:00 11.8 C 8.1 g/m*3 11.8 C 8.1 km/h
407 30-04-2019 09:50:00 11.9 C 8.05 g/m*3 11.9 C 12.9 km/h
408 30-04-2019 09:55:00 12 C 8.1 g/m*3 12 C 9.7 km/h
409 30-04-2019 10:00:00 12.1 C 8.15 g/m*3 12.1 C 8.1 km/h
410 30-04-2019 10:05:00 12.2 C 7.88 g/m*3 12.2 C 11.3 km/h
411 30-04-2019 10:10:00 12.3 C 7.93 g/m*3 12.3 C 8.1 km/h
412 30-04-2019 10:15:00 12.4 C 7.76 g/m*3 12.4 C 9.7 km/h
413 30-04-2019 10:20:00 12.5 C 7.7 g/m*3 12.5 C 11.3 km/h
414 30-04-2019 10:25:00 12.6 C 7.63 g/m*3 12.6 C 8.1 km/h
415 30-04-2019 10:30:00 12.6 C 7.63 g/m*3 12.6 C 11.3 km/h
416 30-04-2019 10:35:00 12.7 C 7.68 g/m*3 12.7 C 11.3 km/h
417 30-04-2019 10:40:00 12.8 C 7.5 g/m*3 12.8 C 11.3 km/h
418 30-04-2019 10:45:00 12.9 C 7.78 g/m*3 12.9 C 8.1 km/h
419 30-04-2019 10:50:00 13.1 C 7.76 g/m*3 13.1 C 14.5 km/h
420 30-04-2019 10:55:00 13.2 C 7.69 g/m*3 13.2 C 16.1 km/h
421 30-04-2019 11:00:00 13.3 C 7.39 g/m*3 13.3 C 14.5 km/h
422 30-04-2019 11:05:00 13.3 C 7.39 g/m*3 13.3 C 6.4 km/h
423 30-04-2019 11:10:00 13.5 C 7.49 g/m*3 13.5 C 9.7 km/h
424 30-04-2019 11:15:00 13.6 C 7.41 g/m*3 13.6 C 12.9 km/h
425 30-04-2019 11:20:00 13.6 C 7.41 g/m*3 13.6 C 12.9 km/h
Sensor: Nr:Datum:Temp:Abs-Feuchte:Windchill:Wind:
Aussen-T/F 426 30-04-2019 11:25:00 13.6 C 7.3 g/m*3 13.6 C 8.1 km/h
427 30-04-2019 11:30:00 13.6 C 7.41 g/m*3 13.6 C 9.7 km/h
428 30-04-2019 11:35:00 13.7 C 7.34 g/m*3 13.7 C 14.5 km/h
429 30-04-2019 11:40:00 13.7 C 7.46 g/m*3 13.7 C 11.3 km/h
430 30-04-2019 11:45:00 13.8 C 7.39 g/m*3 13.8 C 12.9 km/h
431 30-04-2019 11:50:00 13.8 C 7.39 g/m*3 13.8 C 6.4 km/h
432 30-04-2019 11:55:00 13.8 C 7.27 g/m*3 13.8 C 4.8 km/h
433 30-04-2019 12:00:00 13.9 C 7.43 g/m*3 13.9 C 11.3 km/h
434 30-04-2019 12:05:00 14.2 C 7.33 g/m*3 14.2 C 14.5 km/h
435 30-04-2019 12:10:00 14.3 C 7.25 g/m*3 14.3 C 9.7 km/h
436 30-04-2019 12:15:00 14.3 C 7.49 g/m*3 14.3 C 12.9 km/h
437 30-04-2019 12:20:00 14.3 C 7.49 g/m*3 14.3 C 8.1 km/h
438 30-04-2019 12:25:00 14.4 C 7.17 g/m*3 14.4 C 11.3 km/h
439 30-04-2019 12:30:00 14.4 C 7.17 g/m*3 14.4 C 6.4 km/h
440 30-04-2019 12:35:00 14.6 C 7.13 g/m*3 14.6 C 12.9 km/h
441 30-04-2019 12:40:00 14.8 C 7.09 g/m*3 14.8 C 17.7 km/h
442 30-04-2019 12:45:00 14.8 C 7.22 g/m*3 14.8 C 14.5 km/h
443 30-04-2019 12:50:00 14.9 C 7.01 g/m*3 14.9 C 14.5 km/h
444 30-04-2019 12:55:00 15.1 C 7.22 g/m*3 15.1 C 12.9 km/h
445 30-04-2019 13:00:00 15.2 C 6.75 g/m*3 15.2 C 16.1 km/h
446 30-04-2019 13:05:00 15.3 C 6.92 g/m*3 15.3 C 6.4 km/h
447 30-04-2019 13:10:00 15.4 C 7.23 g/m*3 15.4 C 11.3 km/h
448 30-04-2019 13:15:00 15.6 C 7.58 g/m*3 15.6 C 17.7 km/h
449 30-04-2019 13:20:00 15.6 C 7.18 g/m*3 15.6 C 9.7 km/h
450 30-04-2019 13:25:00 15.6 C 7.18 g/m*3 15.6 C 8.1 km/h
Sensor: Nr:Datum:Temp:Abs-Feuchte:Windchill:Wind:
Aussen-T/F 451 30-04-2019 13:30:00 15.6 C 7.18 g/m*3 15.6 C 11.3 km/h
452 30-04-2019 13:35:00 15.7 C 7.09 g/m*3 15.7 C 11.3 km/h
453 30-04-2019 13:40:00 15.8 C 6.87 g/m*3 15.8 C 16.1 km/h
454 30-04-2019 13:45:00 15.9 C 7.18 g/m*3 15.9 C 8.1 km/h
455 30-04-2019 13:50:00 16 C 7.22 g/m*3 16 C 8.1 km/h
456 30-04-2019 13:55:00 16.2 C 6.9 g/m*3 16.2 C 11.3 km/h
457 30-04-2019 14:00:00 16.3 C 7.21 g/m*3 16.3 C 11.3 km/h
458 30-04-2019 14:05:00 16.3 C 6.8 g/m*3 16.3 C 11.3 km/h
459 30-04-2019 14:10:00 16.4 C 6.7 g/m*3 16.4 C 11.3 km/h
460 30-04-2019 14:15:00 16.5 C 7.02 g/m*3 16.5 C 9.7 km/h
461 30-04-2019 14:20:00 16.7 C 6.96 g/m*3 16.7 C 8.1 km/h
462 30-04-2019 14:25:00 16.8 C 7.01 g/m*3 16.8 C 6.4 km/h
463 30-04-2019 14:30:00 16.9 C 7.05 g/m*3 16.9 C 14.5 km/h
464 30-04-2019 14:35:00 17.2 C 6.88 g/m*3 17.2 C 12.9 km/h
465 30-04-2019 14:40:00 17.2 C 6.88 g/m*3 17.2 C 9.7 km/h
466 30-04-2019 14:45:00 17.2 C 7.03 g/m*3 17.2 C 9.7 km/h
467 30-04-2019 14:50:00 17.3 C 6.92 g/m*3 17.3 C 6.4 km/h
468 30-04-2019 14:55:00 17.6 C 7.05 g/m*3 17.6 C 12.9 km/h
469 30-04-2019 15:00:00 17.7 C 7.39 g/m*3 17.7 C 11.3 km/h
470 30-04-2019 15:05:00 17.8 C 6.98 g/m*3 17.8 C 11.3 km/h
471 30-04-2019 15:10:00 18.1 C 7.42 g/m*3 18.1 C 11.3 km/h
472 30-04-2019 15:15:00 18.3 C 7.04 g/m*3 18.3 C 14.5 km/h
473 30-04-2019 15:20:00 18.4 C 7.39 g/m*3 18.4 C 8.1 km/h
474 30-04-2019 15:25:00 18.5 C 6.96 g/m*3 18.5 C 12.9 km/h
475 30-04-2019 15:30:00 18.6 C 7.16 g/m*3 18.6 C 16.1 km/h
Sensor: Nr:Datum:Temp:Abs-Feuchte:Windchill:Wind:
Aussen-T/F 476 30-04-2019 15:35:00 18.8 C 7.25 g/m*3 18.8 C 11.3 km/h
477 30-04-2019 15:40:00 19.1 C 7.21 g/m*3 19.1 C 16.1 km/h
478 30-04-2019 15:45:00 19.2 C 7.42 g/m*3 19.2 C 9.7 km/h
479 30-04-2019 15:50:00 19.3 C 7.13 g/m*3 19.3 C 19.3 km/h
480 30-04-2019 15:55:00 19.3 C 7.13 g/m*3 19.3 C 12.9 km/h
481 30-04-2019 16:00:00 19.4 C 7.01 g/m*3 19.4 C 17.7 km/h
482 30-04-2019 16:05:00 19.6 C 7.09 g/m*3 19.6 C 8.1 km/h
483 30-04-2019 16:10:00 19.7 C 7.13 g/m*3 19.7 C 11.3 km/h
484 30-04-2019 16:15:00 19.8 C 7 g/m*3 19.8 C 12.9 km/h
485 30-04-2019 16:20:00 19.9 C 7.22 g/m*3 19.9 C 9.7 km/h
486 30-04-2019 16:25:00 20.2 C 7.17 g/m*3 20.2 C 8.1 km/h
487 30-04-2019 16:30:00 20.3 C 7.03 g/m*3 20.3 C 17.7 km/h
488 30-04-2019 16:35:00 20.2 C 6.82 g/m*3 20.2 C 14.5 km/h
489 30-04-2019 16:40:00 20.2 C 6.82 g/m*3 20.2 C 8.1 km/h
490 30-04-2019 16:45:00 20.2 C 7.17 g/m*3 20.2 C 11.3 km/h
491 30-04-2019 16:50:00 20.4 C 7.25 g/m*3 20.4 C 16.1 km/h
492 30-04-2019 16:55:00 20.4 C 7.08 g/m*3 20.4 C 11.3 km/h
493 30-04-2019 17:00:00 20.4 C 7.43 g/m*3 20.4 C 8.1 km/h
494 30-04-2019 17:05:00 20.5 C 7.12 g/m*3 20.5 C 12.9 km/h
495 30-04-2019 17:10:00 20.4 C 7.43 g/m*3 20.4 C 14.5 km/h
496 30-04-2019 17:15:00 20.4 C 7.43 g/m*3 20.4 C 8.1 km/h
497 30-04-2019 17:20:00 20.6 C 7.52 g/m*3 20.6 C 11.3 km/h
498 30-04-2019 17:25:00 20.7 C 7.56 g/m*3 20.7 C 12.9 km/h
499 30-04-2019 17:30:00 20.5 C 7.47 g/m*3 20.5 C 12.9 km/h
500 30-04-2019 17:35:00 20.5 C 7.12 g/m*3 20.5 C 16.1 km/h
Sensor: Nr:Datum:Temp:Abs-Feuchte:Windchill:Wind:
Aussen-T/F 501 30-04-2019 17:40:00 20.4 C 7.25 g/m*3 20.4 C 9.7 km/h
502 30-04-2019 17:45:00 20.4 C 7.25 g/m*3 20.4 C 14.5 km/h
503 30-04-2019 17:50:00 20.4 C 7.25 g/m*3 20.4 C 9.7 km/h
504 30-04-2019 17:55:00 20.4 C 7.61 g/m*3 20.4 C 6.4 km/h
505 30-04-2019 18:00:00 20.5 C 7.3 g/m*3 20.5 C 9.7 km/h
506 30-04-2019 18:05:00 20.3 C 7.74 g/m*3 20.3 C 11.3 km/h
507 30-04-2019 18:10:00 20.3 C 7.56 g/m*3 20.3 C 14.5 km/h
508 30-04-2019 18:15:00 20.3 C 7.39 g/m*3 20.3 C 6.4 km/h
509 30-04-2019 18:20:00 20.3 C 7.56 g/m*3 20.3 C 6.4 km/h
510 30-04-2019 18:25:00 20.4 C 7.25 g/m*3 20.4 C 9.7 km/h
511 30-04-2019 18:30:00 20.2 C 7.52 g/m*3 20.2 C 11.3 km/h
512 30-04-2019 18:35:00 20.2 C 7.52 g/m*3 20.2 C 14.5 km/h
513 30-04-2019 18:40:00 20.2 C 7.34 g/m*3 20.2 C 11.3 km/h
514 30-04-2019 18:45:00 20.1 C 7.65 g/m*3 20.1 C 6.4 km/h
515 30-04-2019 18:50:00 20.2 C 7.52 g/m*3 20.2 C 8.1 km/h
516 30-04-2019 18:55:00 19.9 C 7.73 g/m*3 19.9 C 11.3 km/h
517 30-04-2019 19:00:00 19.7 C 7.81 g/m*3 19.7 C 11.3 km/h
518 30-04-2019 19:05:00 19.5 C 7.72 g/m*3 19.5 C 9.7 km/h
519 30-04-2019 19:10:00 19.5 C 7.72 g/m*3 19.5 C 11.3 km/h
520 30-04-2019 19:15:00 19.4 C 7.84 g/m*3 19.4 C 11.3 km/h
521 30-04-2019 19:20:00 19.3 C 7.96 g/m*3 19.3 C 11.3 km/h
522 30-04-2019 19:25:00 19.2 C 8.08 g/m*3 19.2 C 6.4 km/h
523 30-04-2019 19:30:00 19.1 C 8.03 g/m*3 19.1 C 9.7 km/h
524 30-04-2019 19:35:00 18.8 C 7.89 g/m*3 18.8 C 12.9 km/h
525 30-04-2019 19:40:00 18.5 C 7.91 g/m*3 18.5 C 9.7 km/h
Sensor: Nr:Datum:Temp:Abs-Feuchte:Windchill:Wind:
Aussen-T/F 526 30-04-2019 19:45:00 18.2 C 7.93 g/m*3 18.2 C 8.1 km/h
527 30-04-2019 19:50:00 17.9 C 7.94 g/m*3 17.9 C 9.7 km/h
528 30-04-2019 19:55:00 17.8 C 8.04 g/m*3 17.8 C 9.7 km/h
529 30-04-2019 20:00:00 17.7 C 8 g/m*3 17.7 C 9.7 km/h
530 30-04-2019 20:05:00 17.4 C 8 g/m*3 17.4 C 11.3 km/h
531 30-04-2019 20:10:00 17.3 C 8.1 g/m*3 17.3 C 4.8 km/h
532 30-04-2019 20:15:00 17.2 C 8.2 g/m*3 17.2 C 6.4 km/h
533 30-04-2019 20:20:00 17.2 C 8.2 g/m*3 17.2 C 6.4 km/h
534 30-04-2019 20:25:00 17.1 C 8.44 g/m*3 17.1 C 3.2 km/h
535 30-04-2019 20:30:00 16.9 C 8.2 g/m*3 16.9 C 4.8 km/h
536 30-04-2019 20:35:00 16.8 C 8.29 g/m*3 16.8 C 8.1 km/h
537 30-04-2019 20:40:00 16.6 C 8.19 g/m*3 16.6 C 11.3 km/h
538 30-04-2019 20:45:00 16.6 C 8.33 g/m*3 16.6 C 4.8 km/h
539 30-04-2019 20:50:00 16.4 C 8.23 g/m*3 16.4 C 6.4 km/h
540 30-04-2019 20:55:00 16.3 C 8.32 g/m*3 16.3 C 6.4 km/h
541 30-04-2019 21:00:00 16.2 C 8.41 g/m*3 16.2 C 4.8 km/h
542 30-04-2019 21:05:00 16.2 C 8.69 g/m*3 16.2 C 3.2 km/h
543 30-04-2019 21:10:00 16 C 8.45 g/m*3 16 C 4.8 km/h
544 30-04-2019 21:15:00 15.8 C 8.62 g/m*3 15.8 C 6.4 km/h
545 30-04-2019 21:20:00 15.7 C 8.43 g/m*3 15.7 C 6.4 km/h
546 30-04-2019 21:25:00 15.5 C 8.59 g/m*3 15.5 C 11.3 km/h
547 30-04-2019 21:30:00 15.3 C 8.36 g/m*3 15.3 C 8.1 km/h
548 30-04-2019 21:35:00 15.3 C 8.62 g/m*3 15.3 C 3.2 km/h
549 30-04-2019 21:40:00 15.2 C 8.57 g/m*3 15.2 C 11.3 km/h
550 30-04-2019 21:45:00 15 C 8.59 g/m*3 15 C 4.8 km/h
Sensor: Nr:Datum:Temp:Abs-Feuchte:Windchill:Wind:
Aussen-T/F 551 30-04-2019 21:50:00 14.9 C 8.67 g/m*3 14.9 C 1.6 km/h
552 30-04-2019 21:55:00 14.7 C 8.69 g/m*3 14.7 C 1.6 km/h
553 30-04-2019 22:00:00 14.5 C 8.71 g/m*3 14.5 C 4.8 km/h
554 30-04-2019 22:05:00 14.4 C 8.65 g/m*3 14.4 C 11.3 km/h
555 30-04-2019 22:10:00 14.4 C 8.53 g/m*3 14.4 C 8.1 km/h
556 30-04-2019 22:15:00 14.5 C 8.58 g/m*3 14.5 C 14.5 km/h
557 30-04-2019 22:20:00 14.5 C 8.58 g/m*3 14.5 C 11.3 km/h
558 30-04-2019 22:25:00 14.4 C 8.78 g/m*3 14.4 C 6.4 km/h
559 30-04-2019 22:30:00 14.3 C 8.72 g/m*3 14.3 C 8.1 km/h
560 30-04-2019 22:35:00 14.2 C 8.67 g/m*3 14.2 C 8.1 km/h
561 30-04-2019 22:40:00 14.1 C 8.74 g/m*3 14.1 C 8.1 km/h
562 30-04-2019 22:45:00 13.9 C 8.63 g/m*3 13.9 C 3.2 km/h
563 30-04-2019 22:50:00 13.8 C 8.7 g/m*3 13.8 C 6.4 km/h
564 30-04-2019 22:55:00 13.7 C 8.64 g/m*3 13.7 C 4.8 km/h
565 30-04-2019 23:00:00 13.6 C 8.71 g/m*3 13.6 C 9.7 km/h
566 30-04-2019 23:05:00 13.5 C 8.66 g/m*3 13.5 C 1.6 km/h
567 30-04-2019 23:10:00 13.3 C 8.66 g/m*3 13.3 C 0 km/h
568 30-04-2019 23:15:00 13.1 C 8.67 g/m*3 13.1 C 8.1 km/h
569 30-04-2019 23:20:00 12.8 C 8.74 g/m*3 12.8 C 6.4 km/h
570 30-04-2019 23:25:00 12.7 C 8.68 g/m*3 12.7 C 4.8 km/h
571 30-04-2019 23:30:00 12.6 C 8.74 g/m*3 12.6 C 0 km/h
572 30-04-2019 23:35:00 12.4 C 8.63 g/m*3 12.4 C 1.6 km/h
573 30-04-2019 23:40:00 12.2 C 8.63 g/m*3 12.2 C 0 km/h
574 30-04-2019 23:45:00 12.1 C 8.58 g/m*3 12.1 C 1.6 km/h
575 30-04-2019 23:50:00 11.9 C 8.58 g/m*3 11.9 C 0 km/h
Sensor: Nr:Datum:Temp:Abs-Feuchte:Windchill:Wind:
Aussen-T/F 576 30-04-2019 23:55:00 11.7 C 8.47 g/m*3 11.7 C 0 km/h
577 01-05-2019 00:00:00 11.6 C 8.52 g/m*3 11.6 C 0 km/h
578 01-05-2019 00:05:00 11.4 C 8.42 g/m*3 11.4 C 0 km/h
579 01-05-2019 00:10:00 11.3 C 8.47 g/m*3 11.3 C 0 km/h
580 01-05-2019 00:15:00 11.3 C 8.47 g/m*3 11.3 C 0 km/h
581 01-05-2019 00:20:00 11.3 C 8.57 g/m*3 11.3 C 0 km/h
582 01-05-2019 00:25:00 11.2 C 8.41 g/m*3 11.2 C 1.6 km/h
583 01-05-2019 00:30:00 11.2 C 8.51 g/m*3 11.2 C 4.8 km/h
584 01-05-2019 00:35:00 11.3 C 8.47 g/m*3 11.3 C 3.2 km/h
585 01-05-2019 00:40:00 11.3 C 8.47 g/m*3 11.3 C 0 km/h
586 01-05-2019 00:45:00 11.2 C 8.41 g/m*3 11.2 C 0 km/h
587 01-05-2019 00:50:00 11.1 C 8.36 g/m*3 11.1 C 0 km/h
588 01-05-2019 00:55:00 10.9 C 8.36 g/m*3 10.9 C 0 km/h
589 01-05-2019 01:00:00 10.7 C 8.25 g/m*3 10.7 C 0 km/h
590 01-05-2019 01:05:00 10.6 C 8.3 g/m*3 10.6 C 0 km/h
591 01-05-2019 01:10:00 10.6 C 8.3 g/m*3 10.6 C 3.2 km/h
592 01-05-2019 01:15:00 10.6 C 8.3 g/m*3 10.6 C 3.2 km/h
593 01-05-2019 01:20:00 10.6 C 8.3 g/m*3 10.6 C 0 km/h
594 01-05-2019 01:25:00 10.6 C 8.3 g/m*3 10.6 C 0 km/h
595 01-05-2019 01:30:00 10.3 C 8.14 g/m*3 10.3 C 0 km/h
596 01-05-2019 01:35:00 10.2 C 8.18 g/m*3 10.2 C 0 km/h
597 01-05-2019 01:40:00 10.2 C 8.18 g/m*3 10.2 C 0 km/h
598 01-05-2019 01:45:00 10.1 C 8.13 g/m*3 10.1 C 1.6 km/h
599 01-05-2019 01:50:00 10 C 8.17 g/m*3 10 C 0 km/h
600 01-05-2019 01:55:00 9.9 C 8.12 g/m*3 9.9 C 0 km/h
Sensor: Nr:Datum:Temp:Abs-Feuchte:Windchill:Wind:
Aussen-T/F 601 01-05-2019 02:00:00 9.8 C 8.07 g/m*3 9.8 C 0 km/h
602 01-05-2019 02:05:00 9.7 C 8.02 g/m*3 9.7 C 0 km/h
603 01-05-2019 02:10:00 9.6 C 7.97 g/m*3 9.6 C 0 km/h
604 01-05-2019 02:15:00 9.5 C 7.92 g/m*3 9.5 C 0 km/h
605 01-05-2019 02:20:00 9.4 C 7.96 g/m*3 9.4 C 0 km/h
606 01-05-2019 02:25:00 9.3 C 7.91 g/m*3 9.3 C 0 km/h
607 01-05-2019 02:30:00 9.2 C 7.86 g/m*3 9.2 C 0 km/h
608 01-05-2019 02:35:00 9.1 C 7.9 g/m*3 9.1 C 0 km/h
609 01-05-2019 02:40:00 9 C 7.85 g/m*3 9 C 0 km/h
610 01-05-2019 02:45:00 8.9 C 7.8 g/m*3 8.9 C 0 km/h
611 01-05-2019 02:50:00 8.9 C 7.88 g/m*3 8.9 C 0 km/h
612 01-05-2019 02:55:00 8.8 C 7.83 g/m*3 8.8 C 0 km/h
613 01-05-2019 03:00:00 8.8 C 7.83 g/m*3 8.8 C 0 km/h
614 01-05-2019 03:05:00 8.7 C 7.78 g/m*3 8.7 C 0 km/h
615 01-05-2019 03:10:00 8.6 C 7.73 g/m*3 8.6 C 0 km/h
616 01-05-2019 03:15:00 8.5 C 7.68 g/m*3 8.5 C 0 km/h
617 01-05-2019 03:20:00 8.5 C 7.77 g/m*3 8.5 C 0 km/h
618 01-05-2019 03:25:00 8.4 C 7.72 g/m*3 8.4 C 0 km/h
619 01-05-2019 03:30:00 8.4 C 7.72 g/m*3 8.4 C 0 km/h
620 01-05-2019 03:35:00 8.4 C 7.72 g/m*3 8.4 C 0 km/h
621 01-05-2019 03:40:00 8.3 C 7.67 g/m*3 8.3 C 1.6 km/h
622 01-05-2019 03:45:00 8.3 C 7.67 g/m*3 8.3 C 0 km/h
623 01-05-2019 03:50:00 8.3 C 7.75 g/m*3 8.3 C 0 km/h
624 01-05-2019 03:55:00 8.3 C 7.75 g/m*3 8.3 C 0 km/h
625 01-05-2019 04:00:00 8.3 C 7.75 g/m*3 8.3 C 0 km/h
Sensor: Nr:Datum:Temp:Abs-Feuchte:Windchill:Wind:
Aussen-T/F 626 01-05-2019 04:05:00 8.3 C 7.75 g/m*3 8.3 C 0 km/h
627 01-05-2019 04:10:00 8.3 C 7.75 g/m*3 8.3 C 0 km/h
628 01-05-2019 04:15:00 8.3 C 7.75 g/m*3 8.3 C 1.6 km/h
629 01-05-2019 04:20:00 8.3 C 7.75 g/m*3 8.3 C 3.2 km/h
630 01-05-2019 04:25:00 8.2 C 7.7 g/m*3 8.2 C 0 km/h
631 01-05-2019 04:30:00 8.1 C 7.66 g/m*3 8.1 C 0 km/h
632 01-05-2019 04:35:00 8 C 7.61 g/m*3 8 C 0 km/h
633 01-05-2019 04:40:00 7.9 C 7.56 g/m*3 7.9 C 0 km/h
634 01-05-2019 04:45:00 7.8 C 7.43 g/m*3 7.8 C 0 km/h
635 01-05-2019 04:50:00 7.7 C 7.38 g/m*3 7.7 C 0 km/h
636 01-05-2019 04:55:00 7.7 C 7.38 g/m*3 7.7 C 0 km/h
637 01-05-2019 05:00:00 7.6 C 7.41 g/m*3 7.6 C 0 km/h
638 01-05-2019 05:05:00 7.4 C 7.32 g/m*3 7.4 C 0 km/h
639 01-05-2019 05:10:00 7.3 C 7.27 g/m*3 7.3 C 0 km/h
640 01-05-2019 05:15:00 7.2 C 7.22 g/m*3 7.2 C 0 km/h
641 01-05-2019 05:20:00 7.1 C 7.18 g/m*3 7.1 C 0 km/h
642 01-05-2019 05:25:00 6.9 C 7.08 g/m*3 6.9 C 0 km/h
643 01-05-2019 05:30:00 6.8 C 7.04 g/m*3 6.8 C 0 km/h
644 01-05-2019 05:35:00 6.7 C 6.99 g/m*3 6.7 C 0 km/h
645 01-05-2019 05:40:00 6.7 C 6.99 g/m*3 6.7 C 0 km/h
646 01-05-2019 05:45:00 6.6 C 7.02 g/m*3 6.6 C 0 km/h
647 01-05-2019 05:50:00 6.6 C 7.02 g/m*3 6.6 C 0 km/h
648 01-05-2019 05:55:00 6.6 C 7.02 g/m*3 6.6 C 0 km/h
649 01-05-2019 06:00:00 6.4 C 6.93 g/m*3 6.4 C 0 km/h
650 01-05-2019 06:05:00 6.3 C 6.88 g/m*3 6.3 C 0 km/h
Sensor: Nr:Datum:Temp:Abs-Feuchte:Windchill:Wind:
Aussen-T/F 651 01-05-2019 06:10:00 6.3 C 6.88 g/m*3 6.3 C 0 km/h
652 01-05-2019 06:15:00 6.3 C 6.88 g/m*3 6.3 C 0 km/h
653 01-05-2019 06:20:00 6.3 C 6.96 g/m*3 6.3 C 0 km/h
654 01-05-2019 06:25:00 6.2 C 6.84 g/m*3 6.2 C 0 km/h
655 01-05-2019 06:30:00 6.2 C 6.91 g/m*3 6.2 C 1.6 km/h
656 01-05-2019 06:35:00 6.3 C 6.96 g/m*3 6.3 C 0 km/h
657 01-05-2019 06:40:00 6.3 C 6.96 g/m*3 6.3 C 0 km/h
658 01-05-2019 06:45:00 6.3 C 6.96 g/m*3 6.3 C 0 km/h
659 01-05-2019 06:50:00 6.2 C 6.91 g/m*3 6.2 C 0 km/h
660 01-05-2019 06:55:00 6.2 C 6.91 g/m*3 6.2 C 0 km/h
661 01-05-2019 07:00:00 6.3 C 6.96 g/m*3 6.3 C 0 km/h
662 01-05-2019 07:05:00 6.3 C 7.03 g/m*3 6.3 C 0 km/h
663 01-05-2019 07:10:00 6.4 C 7.08 g/m*3 6.4 C 0 km/h
664 01-05-2019 07:15:00 6.6 C 7.17 g/m*3 6.6 C 0 km/h
665 01-05-2019 07:20:00 6.7 C 7.22 g/m*3 6.7 C 0 km/h
666 01-05-2019 07:25:00 6.8 C 7.27 g/m*3 6.8 C 0 km/h
667 01-05-2019 07:30:00 6.8 C 7.27 g/m*3 6.8 C 1.6 km/h
668 01-05-2019 07:35:00 6.9 C 7.31 g/m*3 6.9 C 1.6 km/h
669 01-05-2019 07:40:00 7.1 C 7.41 g/m*3 7.1 C 1.6 km/h
670 01-05-2019 07:45:00 7.1 C 7.41 g/m*3 7.1 C 0 km/h
671 01-05-2019 07:50:00 7.2 C 7.46 g/m*3 7.2 C 1.6 km/h
672 01-05-2019 07:55:00 7.3 C 7.51 g/m*3 7.3 C 0 km/h
673 01-05-2019 08:00:00 7.3 C 7.51 g/m*3 7.3 C 0 km/h
674 01-05-2019 08:05:00 7.5 C 7.6 g/m*3 7.5 C 1.6 km/h
675 01-05-2019 08:10:00 7.5 C 7.6 g/m*3 7.5 C 3.2 km/h
Sensor: Nr:Datum:Temp:Abs-Feuchte:Windchill:Wind:
Aussen-T/F 676 01-05-2019 08:15:00 7.6 C 7.65 g/m*3 7.6 C 0 km/h
677 01-05-2019 08:20:00 7.7 C 7.7 g/m*3 7.7 C 0 km/h
678 01-05-2019 08:25:00 7.9 C 7.8 g/m*3 7.9 C 0 km/h
679 01-05-2019 08:30:00 8.1 C 7.9 g/m*3 8.1 C 0 km/h
680 01-05-2019 08:35:00 8.1 C 7.9 g/m*3 8.1 C 1.6 km/h
681 01-05-2019 08:40:00 8.2 C 7.96 g/m*3 8.2 C 0 km/h
682 01-05-2019 08:45:00 8.2 C 7.96 g/m*3 8.2 C 1.6 km/h
683 01-05-2019 08:50:00 8.3 C 7.92 g/m*3 8.3 C 1.6 km/h
684 01-05-2019 08:55:00 8.4 C 7.97 g/m*3 8.4 C 0 km/h
685 01-05-2019 09:00:00 8.4 C 7.97 g/m*3 8.4 C 0 km/h
686 01-05-2019 09:05:00 8.6 C 8.08 g/m*3 8.6 C 0 km/h
687 01-05-2019 09:10:00 8.6 C 8.08 g/m*3 8.6 C 3.2 km/h
688 01-05-2019 09:15:00 8.7 C 8.04 g/m*3 8.7 C 3.2 km/h
689 01-05-2019 09:20:00 8.7 C 8.04 g/m*3 8.7 C 1.6 km/h
690 01-05-2019 09:25:00 8.8 C 8.09 g/m*3 8.8 C 0 km/h
691 01-05-2019 09:30:00 8.9 C 8.15 g/m*3 8.9 C 1.6 km/h
692 01-05-2019 09:35:00 9.1 C 8.25 g/m*3 9.1 C 1.6 km/h
693 01-05-2019 09:40:00 9.1 C 8.16 g/m*3 9.1 C 3.2 km/h
694 01-05-2019 09:45:00 9.2 C 8.22 g/m*3 9.2 C 3.2 km/h
695 01-05-2019 09:50:00 9.2 C 8.22 g/m*3 9.2 C 0 km/h
696 01-05-2019 09:55:00 9.4 C 8.32 g/m*3 9.4 C 0 km/h
697 01-05-2019 10:00:00 9.6 C 8.43 g/m*3 9.6 C 0 km/h
698 01-05-2019 10:05:00 9.7 C 8.48 g/m*3 9.7 C 3.2 km/h
699 01-05-2019 10:10:00 9.9 C 8.59 g/m*3 9.9 C 1.6 km/h
700 01-05-2019 10:15:00 10.1 C 8.51 g/m*3 10.1 C 3.2 km/h
Sensor: Nr:Datum:Temp:Abs-Feuchte:Windchill:Wind:
Aussen-T/F 701 01-05-2019 10:20:00 10 C 8.36 g/m*3 10 C 1.6 km/h
702 01-05-2019 10:25:00 10 C 8.46 g/m*3 10 C 0 km/h
703 01-05-2019 10:30:00 10.1 C 8.51 g/m*3 10.1 C 1.6 km/h
704 01-05-2019 10:35:00 10.3 C 8.52 g/m*3 9.72 C 6.4 km/h
705 01-05-2019 10:40:00 10.4 C 8.58 g/m*3 9.83 C 6.4 km/h
706 01-05-2019 10:45:00 10.4 C 8.48 g/m*3 9.83 C 6.4 km/h
707 01-05-2019 10:50:00 10.4 C 8.48 g/m*3 10.4 C 1.6 km/h
708 01-05-2019 10:55:00 10.5 C 8.53 g/m*3 10.5 C 4.8 km/h
709 01-05-2019 11:00:00 10.5 C 8.53 g/m*3 10.5 C 1.6 km/h
710 01-05-2019 11:05:00 10.6 C 8.59 g/m*3 10.6 C 1.6 km/h
711 01-05-2019 11:10:00 10.7 C 8.64 g/m*3 10.7 C 4.8 km/h
712 01-05-2019 11:15:00 10.8 C 8.6 g/m*3 10.8 C 3.2 km/h
713 01-05-2019 11:20:00 10.9 C 8.65 g/m*3 10.9 C 3.2 km/h
714 01-05-2019 11:25:00 11.2 C 8.82 g/m*3 11.2 C 1.6 km/h
715 01-05-2019 11:30:00 11.4 C 8.93 g/m*3 11.4 C 1.6 km/h
716 01-05-2019 11:35:00 11.7 C 8.99 g/m*3 11.7 C 1.6 km/h
717 01-05-2019 11:40:00 11.9 C 9.11 g/m*3 11.9 C 3.2 km/h
718 01-05-2019 11:45:00 12.2 C 9.17 g/m*3 12.2 C 4.8 km/h
719 01-05-2019 11:50:00 12.4 C 9.18 g/m*3 12.4 C 4.8 km/h
720 01-05-2019 11:55:00 12.6 C 9.07 g/m*3 12.6 C 4.8 km/h
721 01-05-2019 12:00:00 12.7 C 9.24 g/m*3 12.7 C 3.2 km/h
722 01-05-2019 12:05:00 12.9 C 9.24 g/m*3 12.9 C 6.4 km/h
723 01-05-2019 12:10:00 13.2 C 9.42 g/m*3 13.2 C 1.6 km/h
724 01-05-2019 12:15:00 13.3 C 9.36 g/m*3 13.3 C 3.2 km/h
725 01-05-2019 12:20:00 13.6 C 9.42 g/m*3 13.6 C 1.6 km/h
Sensor: Nr:Datum:Temp:Abs-Feuchte:Windchill:Wind:
Aussen-T/F 726 01-05-2019 12:25:00 13.7 C 9.35 g/m*3 13.7 C 6.4 km/h
727 01-05-2019 12:30:00 13.9 C 9.47 g/m*3 13.9 C 3.2 km/h
728 01-05-2019 12:35:00 14.2 C 9.52 g/m*3 14.2 C 6.4 km/h
729 01-05-2019 12:40:00 14.3 C 9.46 g/m*3 14.3 C 8.1 km/h
730 01-05-2019 12:45:00 14.5 C 9.58 g/m*3 14.5 C 4.8 km/h
731 01-05-2019 12:50:00 14.6 C 9.51 g/m*3 14.6 C 4.8 km/h
732 01-05-2019 12:55:00 14.8 C 9.5 g/m*3 14.8 C 3.2 km/h
733 01-05-2019 13:00:00 15 C 9.62 g/m*3 15 C 3.2 km/h
734 01-05-2019 13:05:00 15.3 C 9.53 g/m*3 15.3 C 8.1 km/h
735 01-05-2019 13:10:00 15.5 C 9.52 g/m*3 15.5 C 8.1 km/h
736 01-05-2019 13:15:00 15.7 C 9.5 g/m*3 15.7 C 8.1 km/h
737 01-05-2019 13:20:00 15.8 C 9.42 g/m*3 15.8 C 8.1 km/h
738 01-05-2019 13:25:00 15.9 C 9.07 g/m*3 15.9 C 8.1 km/h
739 01-05-2019 13:30:00 16.2 C 9.1 g/m*3 16.2 C 8.1 km/h
740 01-05-2019 13:35:00 16.3 C 8.6 g/m*3 16.3 C 4.8 km/h
741 01-05-2019 13:40:00 16.5 C 8.71 g/m*3 16.5 C 11.3 km/h
742 01-05-2019 13:45:00 16.6 C 8.19 g/m*3 16.6 C 8.1 km/h
743 01-05-2019 13:50:00 16.8 C 8.72 g/m*3 16.8 C 8.1 km/h
744 01-05-2019 13:55:00 16.8 C 8.58 g/m*3 16.8 C 6.4 km/h
745 01-05-2019 14:00:00 16.9 C 8.63 g/m*3 16.9 C 6.4 km/h
746 01-05-2019 14:05:00 17.1 C 8.59 g/m*3 17.1 C 9.7 km/h
747 01-05-2019 14:10:00 17.2 C 8.49 g/m*3 17.2 C 9.7 km/h
748 01-05-2019 14:15:00 17.3 C 8.25 g/m*3 17.3 C 11.3 km/h
749 01-05-2019 14:20:00 17.4 C 8.6 g/m*3 17.4 C 8.1 km/h
750 01-05-2019 14:25:00 17.6 C 8.4 g/m*3 17.6 C 11.3 km/h
Sensor: Nr:Datum:Temp:Abs-Feuchte:Windchill:Wind:
Aussen-T/F 751 01-05-2019 14:30:00 17.8 C 8.04 g/m*3 17.8 C 9.7 km/h
752 01-05-2019 14:35:00 17.9 C 7.94 g/m*3 17.9 C 9.7 km/h
753 01-05-2019 14:40:00 18.1 C 7.88 g/m*3 18.1 C 8.1 km/h
754 01-05-2019 14:45:00 18.3 C 7.97 g/m*3 18.3 C 9.7 km/h
755 01-05-2019 14:50:00 18.3 C 8.29 g/m*3 18.3 C 8.1 km/h
756 01-05-2019 14:55:00 18.4 C 8.49 g/m*3 18.4 C 8.1 km/h
757 01-05-2019 15:00:00 18.5 C 7.91 g/m*3 18.5 C 8.1 km/h
758 01-05-2019 15:05:00 18.6 C 8.12 g/m*3 18.6 C 9.7 km/h
759 01-05-2019 15:10:00 18.7 C 8.49 g/m*3 18.7 C 8.1 km/h
760 01-05-2019 15:15:00 18.9 C 7.94 g/m*3 18.9 C 14.5 km/h
761 01-05-2019 15:20:00 18.9 C 8.1 g/m*3 18.9 C 14.5 km/h
762 01-05-2019 15:25:00 19.1 C 8.03 g/m*3 19.1 C 6.4 km/h
763 01-05-2019 15:30:00 19.4 C 8.18 g/m*3 19.4 C 9.7 km/h
764 01-05-2019 15:35:00 19.6 C 7.77 g/m*3 19.6 C 8.1 km/h
765 01-05-2019 15:40:00 19.8 C 8.37 g/m*3 19.8 C 6.4 km/h
766 01-05-2019 15:45:00 20.1 C 8 g/m*3 20.1 C 6.4 km/h
767 01-05-2019 15:50:00 20.2 C 8.04 g/m*3 20.2 C 11.3 km/h
768 01-05-2019 15:55:00 20.4 C 8.31 g/m*3 20.4 C 9.7 km/h
769 01-05-2019 16:00:00 20.6 C 7.87 g/m*3 20.6 C 8.1 km/h
770 01-05-2019 16:05:00 20.8 C 8.33 g/m*3 20.8 C 4.8 km/h
771 01-05-2019 16:10:00 21.1 C 7.92 g/m*3 21.1 C 8.1 km/h
772 01-05-2019 16:15:00 21 C 8.24 g/m*3 21 C 8.1 km/h
773 01-05-2019 16:20:00 21.3 C 8.02 g/m*3 21.3 C 3.2 km/h
774 01-05-2019 16:25:00 21.3 C 8.02 g/m*3 21.3 C 3.2 km/h
775 01-05-2019 16:30:00 21.6 C 8.16 g/m*3 21.6 C 9.7 km/h
Sensor: Nr:Datum:Temp:Abs-Feuchte:Windchill:Wind:
Aussen-T/F 776 01-05-2019 16:35:00 21.7 C 8.2 g/m*3 21.7 C 9.7 km/h
777 01-05-2019 16:40:00 21.8 C 8.25 g/m*3 21.8 C 9.7 km/h
778 01-05-2019 16:45:00 21.6 C 8.35 g/m*3 21.6 C 8.1 km/h
779 01-05-2019 16:50:00 21.4 C 8.44 g/m*3 21.4 C 8.1 km/h
780 01-05-2019 16:55:00 21.6 C 8.35 g/m*3 21.6 C 8.1 km/h
781 01-05-2019 17:00:00 21.7 C 8.58 g/m*3 21.7 C 4.8 km/h
782 01-05-2019 17:05:00 21.7 C 8.2 g/m*3 21.7 C 9.7 km/h
783 01-05-2019 17:10:00 21.7 C 8.58 g/m*3 21.7 C 9.7 km/h
784 01-05-2019 17:15:00 21.7 C 8.01 g/m*3 21.7 C 6.4 km/h
785 01-05-2019 17:20:00 21.5 C 8.3 g/m*3 21.5 C 8.1 km/h
786 01-05-2019 17:25:00 21.6 C 8.16 g/m*3 21.6 C 4.8 km/h
787 01-05-2019 17:30:00 21.5 C 8.11 g/m*3 21.5 C 9.7 km/h
788 01-05-2019 17:35:00 21.3 C 8.39 g/m*3 21.3 C 11.3 km/h
789 01-05-2019 17:40:00 21.3 C 8.39 g/m*3 21.3 C 9.7 km/h
790 01-05-2019 17:45:00 21.3 C 8.57 g/m*3 21.3 C 6.4 km/h
791 01-05-2019 17:50:00 21.3 C 8.39 g/m*3 21.3 C 6.4 km/h
792 01-05-2019 17:55:00 21.2 C 8.34 g/m*3 21.2 C 9.7 km/h
793 01-05-2019 18:00:00 20.9 C 8.92 g/m*3 20.9 C 12.9 km/h
794 01-05-2019 18:05:00 20.8 C 9.23 g/m*3 20.8 C 11.3 km/h
795 01-05-2019 18:10:00 20.8 C 9.05 g/m*3 20.8 C 9.7 km/h
796 01-05-2019 18:15:00 20.8 C 9.42 g/m*3 20.8 C 8.1 km/h
797 01-05-2019 18:20:00 20.7 C 9.18 g/m*3 20.7 C 12.9 km/h
798 01-05-2019 18:25:00 20.6 C 9.31 g/m*3 20.6 C 8.1 km/h
799 01-05-2019 18:30:00 20.4 C 9.2 g/m*3 20.4 C 11.3 km/h
800 01-05-2019 18:35:00 20.2 C 9.44 g/m*3 20.2 C 9.7 km/h
Sensor: Nr:Datum:Temp:Abs-Feuchte:Windchill:Wind:
Aussen-T/F 801 01-05-2019 18:40:00 20 C 9.33 g/m*3 20 C 9.7 km/h
802 01-05-2019 18:45:00 19.7 C 9.17 g/m*3 19.7 C 12.9 km/h
803 01-05-2019 18:50:00 19.6 C 9.45 g/m*3 19.6 C 6.4 km/h
804 01-05-2019 18:55:00 19.4 C 9.18 g/m*3 19.4 C 9.7 km/h
805 01-05-2019 19:00:00 19.4 C 9.34 g/m*3 19.4 C 9.7 km/h
806 01-05-2019 19:05:00 19.2 C 9.23 g/m*3 19.2 C 11.3 km/h
807 01-05-2019 19:10:00 19 C 9.29 g/m*3 19 C 4.8 km/h
808 01-05-2019 19:15:00 18.8 C 9.18 g/m*3 18.8 C 9.7 km/h
809 01-05-2019 19:20:00 18.6 C 9.23 g/m*3 18.6 C 9.7 km/h
810 01-05-2019 19:25:00 18.3 C 9.07 g/m*3 18.3 C 9.7 km/h
811 01-05-2019 19:30:00 18 C 8.91 g/m*3 18 C 8.1 km/h
812 01-05-2019 19:35:00 17.7 C 8.9 g/m*3 17.7 C 11.3 km/h
813 01-05-2019 19:40:00 17.6 C 9 g/m*3 17.6 C 4.8 km/h
814 01-05-2019 19:45:00 17.5 C 8.95 g/m*3 17.5 C 3.2 km/h
815 01-05-2019 19:50:00 17.3 C 8.69 g/m*3 17.3 C 4.8 km/h
816 01-05-2019 19:55:00 17.2 C 8.93 g/m*3 17.2 C 4.8 km/h
817 01-05-2019 20:00:00 17.1 C 8.59 g/m*3 17.1 C 11.3 km/h
818 01-05-2019 20:05:00 16.9 C 8.63 g/m*3 16.9 C 3.2 km/h
819 01-05-2019 20:10:00 16.7 C 8.95 g/m*3 16.7 C 4.8 km/h
820 01-05-2019 20:15:00 16.4 C 8.65 g/m*3 16.4 C 6.4 km/h
821 01-05-2019 20:20:00 16.2 C 8.55 g/m*3 16.2 C 4.8 km/h
822 01-05-2019 20:25:00 15.8 C 8.48 g/m*3 15.8 C 3.2 km/h
823 01-05-2019 20:30:00 15.5 C 8.46 g/m*3 15.5 C 0 km/h
824 01-05-2019 20:35:00 15.2 C 8.31 g/m*3 15.2 C 1.6 km/h
825 01-05-2019 20:40:00 14.9 C 8.28 g/m*3 14.9 C 0 km/h
Sensor: Nr:Datum:Temp:Abs-Feuchte:Windchill:Wind:
Aussen-T/F 826 01-05-2019 20:45:00 14.7 C 8.31 g/m*3 14.7 C 0 km/h
827 01-05-2019 20:50:00 14.3 C 7.99 g/m*3 14.3 C 4.8 km/h
828 01-05-2019 20:55:00 14.2 C 8.18 g/m*3 14.2 C 1.6 km/h
829 01-05-2019 21:00:00 13.9 C 8.27 g/m*3 13.9 C 0 km/h
830 01-05-2019 21:05:00 13.6 C 8.36 g/m*3 13.6 C 4.8 km/h
831 01-05-2019 21:10:00 13.4 C 8.49 g/m*3 13.4 C 4.8 km/h
832 01-05-2019 21:15:00 13.3 C 8.43 g/m*3 13.3 C 4.8 km/h
833 01-05-2019 21:20:00 13.3 C 8.55 g/m*3 13.3 C 6.4 km/h
834 01-05-2019 21:25:00 13.4 C 8.6 g/m*3 13.4 C 8.1 km/h
835 01-05-2019 21:30:00 13.6 C 8.71 g/m*3 13.6 C 8.1 km/h
836 01-05-2019 21:35:00 13.6 C 8.71 g/m*3 13.6 C 3.2 km/h
837 01-05-2019 21:40:00 13.5 C 8.66 g/m*3 13.5 C 8.1 km/h
838 01-05-2019 21:45:00 13.6 C 8.71 g/m*3 13.6 C 8.1 km/h
839 01-05-2019 21:50:00 13.6 C 8.71 g/m*3 13.6 C 6.4 km/h
840 01-05-2019 21:55:00 13.6 C 8.83 g/m*3 13.6 C 8.1 km/h
841 01-05-2019 22:00:00 13.6 C 8.83 g/m*3 13.6 C 4.8 km/h
842 01-05-2019 22:05:00 13.4 C 8.72 g/m*3 13.4 C 8.1 km/h
843 01-05-2019 22:10:00 13.4 C 8.72 g/m*3 13.4 C 9.7 km/h
844 01-05-2019 22:15:00 13.4 C 8.72 g/m*3 13.4 C 4.8 km/h
845 01-05-2019 22:20:00 13.3 C 8.78 g/m*3 13.3 C 1.6 km/h
846 01-05-2019 22:25:00 13.1 C 8.79 g/m*3 13.1 C 0 km/h
847 01-05-2019 22:30:00 12.8 C 8.74 g/m*3 12.8 C 3.2 km/h
848 01-05-2019 22:35:00 12.5 C 8.69 g/m*3 12.5 C 1.6 km/h
849 01-05-2019 22:40:00 12.3 C 8.69 g/m*3 12.3 C 0 km/h
850 01-05-2019 22:45:00 12 C 8.63 g/m*3 12 C 0 km/h
Sensor: Nr:Datum:Temp:Abs-Feuchte:Windchill:Wind:
Aussen-T/F 851 01-05-2019 22:50:00 11.8 C 8.63 g/m*3 11.8 C 0 km/h
852 01-05-2019 22:55:00 11.6 C 8.52 g/m*3 11.6 C 0 km/h
853 01-05-2019 23:00:00 11.4 C 8.52 g/m*3 11.4 C 0 km/h
854 01-05-2019 23:05:00 11.3 C 8.57 g/m*3 11.3 C 0 km/h
855 01-05-2019 23:10:00 11.2 C 8.51 g/m*3 11.2 C 0 km/h
856 01-05-2019 23:15:00 11.1 C 8.56 g/m*3 11.1 C 0 km/h
857 01-05-2019 23:20:00 10.9 C 8.45 g/m*3 10.9 C 0 km/h
858 01-05-2019 23:25:00 10.8 C 8.4 g/m*3 10.8 C 0 km/h
859 01-05-2019 23:30:00 10.7 C 8.45 g/m*3 10.7 C 0 km/h
860 01-05-2019 23:35:00 10.6 C 8.39 g/m*3 10.6 C 0 km/h
861 01-05-2019 23:40:00 10.6 C 8.39 g/m*3 10.6 C 0 km/h
862 01-05-2019 23:45:00 10.4 C 8.38 g/m*3 10.4 C 0 km/h
863 01-05-2019 23:50:00 10.4 C 8.38 g/m*3 10.4 C 0 km/h
864 01-05-2019 23:55:00 10.3 C 8.33 g/m*3 10.3 C 0 km/h
865 02-05-2019 00:00:00 10.3 C 8.33 g/m*3 10.3 C 0 km/h
866 02-05-2019 00:05:00 10.2 C 8.28 g/m*3 10.2 C 0 km/h
867 02-05-2019 00:10:00 10.2 C 8.37 g/m*3 10.2 C 0 km/h
868 02-05-2019 00:15:00 10.2 C 8.37 g/m*3 10.2 C 0 km/h
869 02-05-2019 00:20:00 10.1 C 8.32 g/m*3 10.1 C 0 km/h
870 02-05-2019 00:25:00 10 C 8.27 g/m*3 10 C 0 km/h
871 02-05-2019 00:30:00 9.9 C 8.31 g/m*3 9.9 C 0 km/h
872 02-05-2019 00:35:00 9.9 C 8.31 g/m*3 9.9 C 0 km/h
873 02-05-2019 00:40:00 9.8 C 8.26 g/m*3 9.8 C 0 km/h
874 02-05-2019 00:45:00 9.8 C 8.26 g/m*3 9.8 C 0 km/h
875 02-05-2019 00:50:00 9.7 C 8.2 g/m*3 9.7 C 0 km/h
Sensor: Nr:Datum:Temp:Abs-Feuchte:Windchill:Wind:
Aussen-T/F 876 02-05-2019 00:55:00 9.7 C 8.2 g/m*3 9.7 C 0 km/h
877 02-05-2019 01:00:00 9.6 C 8.15 g/m*3 9.6 C 0 km/h
878 02-05-2019 01:05:00 9.5 C 8.1 g/m*3 9.5 C 0 km/h
879 02-05-2019 01:10:00 9.3 C 8.09 g/m*3 9.3 C 0 km/h
880 02-05-2019 01:15:00 9.2 C 7.95 g/m*3 9.2 C 0 km/h
881 02-05-2019 01:20:00 9.1 C 7.99 g/m*3 9.1 C 0 km/h
882 02-05-2019 01:25:00 8.9 C 7.88 g/m*3 8.9 C 0 km/h
883 02-05-2019 01:30:00 8.8 C 7.83 g/m*3 8.8 C 0 km/h
884 02-05-2019 01:35:00 8.7 C 7.87 g/m*3 8.7 C 0 km/h
885 02-05-2019 01:40:00 8.7 C 7.87 g/m*3 8.7 C 0 km/h
886 02-05-2019 01:45:00 8.6 C 7.91 g/m*3 8.6 C 0 km/h
887 02-05-2019 01:50:00 8.6 C 7.91 g/m*3 8.6 C 0 km/h
888 02-05-2019 01:55:00 8.6 C 7.91 g/m*3 8.6 C 0 km/h
889 02-05-2019 02:00:00 8.4 C 7.8 g/m*3 8.4 C 0 km/h
890 02-05-2019 02:05:00 8.4 C 7.8 g/m*3 8.4 C 0 km/h
891 02-05-2019 02:10:00 8.3 C 7.75 g/m*3 8.3 C 0 km/h
892 02-05-2019 02:15:00 8.3 C 7.75 g/m*3 8.3 C 0 km/h
893 02-05-2019 02:20:00 8.3 C 7.84 g/m*3 8.3 C 0 km/h
894 02-05-2019 02:25:00 8.2 C 7.79 g/m*3 8.2 C 0 km/h
895 02-05-2019 02:30:00 8.2 C 7.79 g/m*3 8.2 C 0 km/h
896 02-05-2019 02:35:00 8.2 C 7.79 g/m*3 8.2 C 0 km/h
897 02-05-2019 02:40:00 8.2 C 7.79 g/m*3 8.2 C 0 km/h
898 02-05-2019 02:45:00 8.1 C 7.74 g/m*3 8.1 C 0 km/h
899 02-05-2019 02:50:00 8.1 C 7.74 g/m*3 8.1 C 0 km/h
900 02-05-2019 02:55:00 8.1 C 7.82 g/m*3 8.1 C 0 km/h
Sensor: Nr:Datum:Temp:Abs-Feuchte:Windchill:Wind:
Aussen-T/F 901 02-05-2019 03:00:00 8 C 7.69 g/m*3 8 C 0 km/h
902 02-05-2019 03:05:00 7.9 C 7.72 g/m*3 7.9 C 0 km/h
903 02-05-2019 03:10:00 7.9 C 7.64 g/m*3 7.9 C 0 km/h
904 02-05-2019 03:15:00 7.9 C 7.64 g/m*3 7.9 C 0 km/h
905 02-05-2019 03:20:00 7.9 C 7.72 g/m*3 7.9 C 0 km/h
906 02-05-2019 03:25:00 7.8 C 7.67 g/m*3 7.8 C 0 km/h
907 02-05-2019 03:30:00 7.8 C 7.67 g/m*3 7.8 C 0 km/h
908 02-05-2019 03:35:00 7.7 C 7.62 g/m*3 7.7 C 0 km/h
909 02-05-2019 03:40:00 7.6 C 7.49 g/m*3 7.6 C 0 km/h
910 02-05-2019 03:45:00 7.5 C 7.44 g/m*3 7.5 C 0 km/h
911 02-05-2019 03:50:00 7.4 C 7.48 g/m*3 7.4 C 0 km/h
912 02-05-2019 03:55:00 7.4 C 7.48 g/m*3 7.4 C 0 km/h
913 02-05-2019 04:00:00 7.3 C 7.43 g/m*3 7.3 C 0 km/h
914 02-05-2019 04:05:00 7.3 C 7.43 g/m*3 7.3 C 0 km/h
915 02-05-2019 04:10:00 7.2 C 7.38 g/m*3 7.2 C 0 km/h
916 02-05-2019 04:15:00 7.2 C 7.38 g/m*3 7.2 C 0 km/h
917 02-05-2019 04:20:00 7.1 C 7.33 g/m*3 7.1 C 0 km/h
918 02-05-2019 04:25:00 7.1 C 7.33 g/m*3 7.1 C 0 km/h
919 02-05-2019 04:30:00 7 C 7.28 g/m*3 7 C 0 km/h
920 02-05-2019 04:35:00 6.9 C 7.24 g/m*3 6.9 C 0 km/h
921 02-05-2019 04:40:00 6.9 C 7.24 g/m*3 6.9 C 0 km/h
922 02-05-2019 04:45:00 6.8 C 7.19 g/m*3 6.8 C 0 km/h
923 02-05-2019 04:50:00 6.8 C 7.19 g/m*3 6.8 C 0 km/h
924 02-05-2019 04:55:00 6.7 C 7.14 g/m*3 6.7 C 0 km/h
925 02-05-2019 05:00:00 6.6 C 7.1 g/m*3 6.6 C 0 km/h
Sensor: Nr:Datum:Temp:Abs-Feuchte:Windchill:Wind:
Aussen-T/F 926 02-05-2019 05:05:00 6.6 C 7.1 g/m*3 6.6 C 0 km/h
927 02-05-2019 05:10:00 6.6 C 7.1 g/m*3 6.6 C 0 km/h
928 02-05-2019 05:15:00 6.4 C 7 g/m*3 6.4 C 0 km/h
929 02-05-2019 05:20:00 6.4 C 7 g/m*3 6.4 C 0 km/h
930 02-05-2019 05:25:00 6.3 C 6.96 g/m*3 6.3 C 0 km/h
931 02-05-2019 05:30:00 6.3 C 6.96 g/m*3 6.3 C 0 km/h
932 02-05-2019 05:35:00 6.2 C 6.91 g/m*3 6.2 C 0 km/h
933 02-05-2019 05:40:00 6.2 C 6.99 g/m*3 6.2 C 0 km/h
934 02-05-2019 05:45:00 6.1 C 6.94 g/m*3 6.1 C 0 km/h
935 02-05-2019 05:50:00 6.1 C 6.87 g/m*3 6.1 C 0 km/h
936 02-05-2019 05:55:00 6.1 C 6.94 g/m*3 6.1 C 0 km/h
937 02-05-2019 06:00:00 6.1 C 6.94 g/m*3 6.1 C 0 km/h
938 02-05-2019 06:05:00 6 C 6.9 g/m*3 6 C 0 km/h
939 02-05-2019 06:10:00 5.9 C 6.85 g/m*3 5.9 C 0 km/h
940 02-05-2019 06:15:00 5.9 C 6.85 g/m*3 5.9 C 0 km/h
941 02-05-2019 06:20:00 5.8 C 6.81 g/m*3 5.8 C 0 km/h
942 02-05-2019 06:25:00 5.8 C 6.81 g/m*3 5.8 C 0 km/h
943 02-05-2019 06:30:00 5.8 C 6.81 g/m*3 5.8 C 0 km/h
944 02-05-2019 06:35:00 5.8 C 6.81 g/m*3 5.8 C 0 km/h
945 02-05-2019 06:40:00 5.8 C 6.81 g/m*3 5.8 C 0 km/h
946 02-05-2019 06:45:00 5.9 C 6.85 g/m*3 5.9 C 0 km/h
947 02-05-2019 06:50:00 5.9 C 6.85 g/m*3 5.9 C 0 km/h
948 02-05-2019 06:55:00 6 C 6.9 g/m*3 6 C 0 km/h
949 02-05-2019 07:00:00 6.1 C 7.01 g/m*3 6.1 C 0 km/h
950 02-05-2019 07:05:00 6.2 C 7.06 g/m*3 6.2 C 0 km/h
Sensor: Nr:Datum:Temp:Abs-Feuchte:Windchill:Wind:
Aussen-T/F 951 02-05-2019 07:10:00 6.4 C 7.15 g/m*3 6.4 C 0 km/h
952 02-05-2019 07:15:00 6.6 C 7.25 g/m*3 6.6 C 0 km/h
953 02-05-2019 07:20:00 6.7 C 7.29 g/m*3 6.7 C 0 km/h
954 02-05-2019 07:25:00 6.8 C 7.34 g/m*3 6.8 C 0 km/h
955 02-05-2019 07:30:00 6.9 C 7.39 g/m*3 6.9 C 0 km/h
956 02-05-2019 07:35:00 7.1 C 7.49 g/m*3 7.1 C 3.2 km/h
957 02-05-2019 07:40:00 7.1 C 7.49 g/m*3 7.1 C 1.6 km/h
958 02-05-2019 07:45:00 7.2 C 7.54 g/m*3 7.2 C 0 km/h
959 02-05-2019 07:50:00 7.4 C 7.63 g/m*3 7.4 C 3.2 km/h
960 02-05-2019 07:55:00 7.6 C 7.73 g/m*3 7.6 C 1.6 km/h
961 02-05-2019 08:00:00 7.7 C 7.78 g/m*3 7.7 C 1.6 km/h
962 02-05-2019 08:05:00 7.8 C 7.83 g/m*3 7.8 C 0 km/h
963 02-05-2019 08:10:00 7.9 C 7.89 g/m*3 7.9 C 3.2 km/h
964 02-05-2019 08:15:00 8.1 C 7.99 g/m*3 8.1 C 0 km/h
965 02-05-2019 08:20:00 8.3 C 8.09 g/m*3 8.3 C 0 km/h
966 02-05-2019 08:25:00 8.4 C 8.14 g/m*3 7.52 C 6.4 km/h
967 02-05-2019 08:30:00 8.6 C 8.25 g/m*3 8.6 C 3.2 km/h
968 02-05-2019 08:35:00 8.6 C 8.25 g/m*3 8.6 C 4.8 km/h
969 02-05-2019 08:40:00 8.7 C 8.3 g/m*3 8.7 C 1.6 km/h
970 02-05-2019 08:45:00 8.6 C 8.16 g/m*3 8.6 C 4.8 km/h
971 02-05-2019 08:50:00 8.6 C 8.16 g/m*3 8.6 C 0 km/h
972 02-05-2019 08:55:00 8.6 C 8.16 g/m*3 8.6 C 0 km/h
973 02-05-2019 09:00:00 8.7 C 8.22 g/m*3 8.7 C 0 km/h
974 02-05-2019 09:05:00 8.7 C 8.13 g/m*3 8.7 C 0 km/h
975 02-05-2019 09:10:00 8.8 C 8.27 g/m*3 8.8 C 0 km/h
Sensor: Nr:Datum:Temp:Abs-Feuchte:Windchill:Wind:
Aussen-T/F 976 02-05-2019 09:15:00 8.9 C 8.23 g/m*3 8.9 C 4.8 km/h
977 02-05-2019 09:20:00 8.9 C 8.15 g/m*3 8.9 C 4.8 km/h
978 02-05-2019 09:25:00 9 C 8.2 g/m*3 9 C 1.6 km/h
979 02-05-2019 09:30:00 9.1 C 8.16 g/m*3 9.1 C 1.6 km/h
980 02-05-2019 09:35:00 9.2 C 8.22 g/m*3 9.2 C 1.6 km/h
981 02-05-2019 09:40:00 9.2 C 8.13 g/m*3 9.2 C 1.6 km/h
982 02-05-2019 09:45:00 9.3 C 8.09 g/m*3 9.3 C 0 km/h
983 02-05-2019 09:50:00 9.4 C 8.14 g/m*3 9.4 C 1.6 km/h
984 02-05-2019 09:55:00 9.7 C 8.2 g/m*3 9.7 C 3.2 km/h
985 02-05-2019 10:00:00 9.9 C 8.22 g/m*3 9.9 C 1.6 km/h
986 02-05-2019 10:05:00 10.2 C 8.28 g/m*3 10.2 C 1.6 km/h
987 02-05-2019 10:10:00 10.3 C 8.14 g/m*3 10.3 C 3.2 km/h
988 02-05-2019 10:15:00 10.4 C 8.19 g/m*3 10.4 C 3.2 km/h
989 02-05-2019 10:20:00 10.6 C 8.1 g/m*3 10.6 C 1.6 km/h
990 02-05-2019 10:25:00 10.6 C 8 g/m*3 10.6 C 3.2 km/h
991 02-05-2019 10:30:00 10.8 C 8.01 g/m*3 10.29 C 6.4 km/h
992 02-05-2019 10:35:00 10.9 C 7.96 g/m*3 10.9 C 1.6 km/h
993 02-05-2019 10:40:00 11 C 8.21 g/m*3 10.52 C 6.4 km/h
994 02-05-2019 10:45:00 11.2 C 8.11 g/m*3 11.2 C 0 km/h
995 02-05-2019 10:50:00 11.3 C 8.06 g/m*3 11.3 C 3.2 km/h
996 02-05-2019 10:55:00 11.5 C 8.16 g/m*3 11.5 C 6.4 km/h
997 02-05-2019 11:00:00 11.7 C 8.16 g/m*3 11.7 C 6.4 km/h
998 02-05-2019 11:05:00 11.8 C 8.31 g/m*3 11.8 C 3.2 km/h
999 02-05-2019 11:10:00 11.9 C 8.15 g/m*3 11.9 C 8.1 km/h
1000 02-05-2019 11:15:00 12.1 C 8.36 g/m*3 12.1 C 6.4 km/h
Sensor: Nr:Datum:Temp:Abs-Feuchte:Windchill:Wind:
Aussen-T/F 1001 02-05-2019 11:20:00 12.2 C 8.31 g/m*3 12.2 C 4.8 km/h
1002 02-05-2019 11:25:00 12.2 C 8.31 g/m*3 12.2 C 4.8 km/h
1003 02-05-2019 11:30:00 12.3 C 8.14 g/m*3 12.3 C 4.8 km/h
1004 02-05-2019 11:35:00 12.3 C 8.25 g/m*3 12.3 C 3.2 km/h
1005 02-05-2019 11:40:00 12.3 C 8.25 g/m*3 12.3 C 4.8 km/h
1006 02-05-2019 11:45:00 12.4 C 8.19 g/m*3 12.4 C 3.2 km/h
1007 02-05-2019 11:50:00 12.3 C 8.14 g/m*3 12.3 C 8.1 km/h
1008 02-05-2019 11:55:00 12.4 C 8.3 g/m*3 12.4 C 4.8 km/h
1009 02-05-2019 12:00:00 12.4 C 8.19 g/m*3 12.4 C 6.4 km/h
1010 02-05-2019 12:05:00 12.5 C 8.14 g/m*3 12.5 C 4.8 km/h
1011 02-05-2019 12:10:00 12.5 C 8.25 g/m*3 12.5 C 4.8 km/h
1012 02-05-2019 12:15:00 12.7 C 8.46 g/m*3 12.7 C 4.8 km/h
1013 02-05-2019 12:20:00 12.8 C 8.29 g/m*3 12.8 C 3.2 km/h
1014 02-05-2019 12:25:00 12.9 C 8.34 g/m*3 12.9 C 9.7 km/h
1015 02-05-2019 12:30:00 12.9 C 8.34 g/m*3 12.9 C 9.7 km/h
1016 02-05-2019 12:35:00 13 C 8.51 g/m*3 13 C 8.1 km/h
1017 02-05-2019 12:40:00 13.2 C 8.5 g/m*3 13.2 C 9.7 km/h
1018 02-05-2019 12:45:00 13.3 C 8.43 g/m*3 13.3 C 6.4 km/h
1019 02-05-2019 12:50:00 13.4 C 8.37 g/m*3 13.4 C 8.1 km/h
1020 02-05-2019 12:55:00 13.5 C 8.42 g/m*3 13.5 C 8.1 km/h
1021 02-05-2019 13:00:00 13.5 C 8.3 g/m*3 13.5 C 8.1 km/h
1022 02-05-2019 13:05:00 13.6 C 8.36 g/m*3 13.6 C 8.1 km/h
1023 02-05-2019 13:10:00 13.7 C 8.53 g/m*3 13.7 C 4.8 km/h
1024 02-05-2019 13:15:00 13.9 C 8.39 g/m*3 13.9 C 8.1 km/h
1025 02-05-2019 13:20:00 14.1 C 8.5 g/m*3 14.1 C 6.4 km/h
Sensor: Nr:Datum:Temp:Abs-Feuchte:Windchill:Wind:
Aussen-T/F 1026 02-05-2019 13:25:00 14.2 C 8.43 g/m*3 14.2 C 6.4 km/h
1027 02-05-2019 13:30:00 14.3 C 8.48 g/m*3 14.3 C 11.3 km/h
1028 02-05-2019 13:35:00 14.3 C 8.35 g/m*3 14.3 C 8.1 km/h
1029 02-05-2019 13:40:00 14.3 C 8.48 g/m*3 14.3 C 8.1 km/h
1030 02-05-2019 13:45:00 14.5 C 8.46 g/m*3 14.5 C 8.1 km/h
1031 02-05-2019 13:50:00 14.6 C 8.51 g/m*3 14.6 C 6.4 km/h
1032 02-05-2019 13:55:00 14.8 C 8.74 g/m*3 14.8 C 3.2 km/h
1033 02-05-2019 14:00:00 14.9 C 8.67 g/m*3 14.9 C 4.8 km/h
1034 02-05-2019 14:05:00 15.2 C 8.7 g/m*3 15.2 C 6.4 km/h
1035 02-05-2019 14:10:00 15.3 C 8.62 g/m*3 15.3 C 4.8 km/h
1036 02-05-2019 14:15:00 15.4 C 8.54 g/m*3 15.4 C 6.4 km/h
1037 02-05-2019 14:20:00 15.6 C 8.64 g/m*3 15.6 C 8.1 km/h
1038 02-05-2019 14:25:00 15.7 C 8.7 g/m*3 15.7 C 6.4 km/h
1039 02-05-2019 14:30:00 15.8 C 8.75 g/m*3 15.8 C 6.4 km/h
1040 02-05-2019 14:35:00 16 C 8.99 g/m*3 16 C 3.2 km/h
1041 02-05-2019 14:40:00 16.3 C 9.16 g/m*3 16.3 C 9.7 km/h
1042 02-05-2019 14:45:00 16.6 C 9.04 g/m*3 16.6 C 12.9 km/h
1043 02-05-2019 14:50:00 16.7 C 8.81 g/m*3 16.7 C 8.1 km/h
1044 02-05-2019 14:55:00 16.7 C 9.1 g/m*3 16.7 C 6.4 km/h
1045 02-05-2019 15:00:00 16.7 C 8.81 g/m*3 16.7 C 11.3 km/h
1046 02-05-2019 15:05:00 16.7 C 8.81 g/m*3 16.7 C 8.1 km/h
1047 02-05-2019 15:10:00 16.7 C 9.1 g/m*3 16.7 C 6.4 km/h
1048 02-05-2019 15:15:00 16.6 C 8.76 g/m*3 16.6 C 12.9 km/h
1049 02-05-2019 15:20:00 16.4 C 8.51 g/m*3 16.4 C 8.1 km/h
1050 02-05-2019 15:25:00 16.3 C 8.6 g/m*3 16.3 C 11.3 km/h
Sensor: Nr:Datum:Temp:Abs-Feuchte:Windchill:Wind:
Aussen-T/F 1051 02-05-2019 15:30:00 16.4 C 8.65 g/m*3 16.4 C 8.1 km/h
1052 02-05-2019 15:35:00 16.4 C 8.51 g/m*3 16.4 C 9.7 km/h
1053 02-05-2019 15:40:00 16.7 C 8.53 g/m*3 16.7 C 8.1 km/h
1054 02-05-2019 15:45:00 16.8 C 8.58 g/m*3 16.8 C 11.3 km/h
1055 02-05-2019 15:50:00 16.7 C 8.38 g/m*3 16.7 C 12.9 km/h
1056 02-05-2019 15:55:00 16.6 C 8.19 g/m*3 16.6 C 8.1 km/h
1057 02-05-2019 16:00:00 16.5 C 8.28 g/m*3 16.5 C 8.1 km/h
1058 02-05-2019 16:05:00 16.6 C 8.48 g/m*3 16.6 C 6.4 km/h
1059 02-05-2019 16:10:00 16.7 C 8.53 g/m*3 16.7 C 6.4 km/h
1060 02-05-2019 16:15:00 16.8 C 8.29 g/m*3 16.8 C 8.1 km/h
1061 02-05-2019 16:20:00 16.9 C 8.49 g/m*3 16.9 C 4.8 km/h
1062 02-05-2019 16:25:00 17.1 C 8.59 g/m*3 17.1 C 4.8 km/h
1063 02-05-2019 16:30:00 17.4 C 8.74 g/m*3 17.4 C 8.1 km/h
1064 02-05-2019 16:35:00 18.1 C 8.96 g/m*3 18.1 C 9.7 km/h
1065 02-05-2019 16:40:00 18.3 C 8.6 g/m*3 18.3 C 17.7 km/h
1066 02-05-2019 16:45:00 18 C 8.91 g/m*3 18 C 9.7 km/h
1067 02-05-2019 16:50:00 17.2 C 8.05 g/m*3 17.2 C 12.9 km/h
1068 02-05-2019 16:55:00 17.1 C 8.15 g/m*3 17.1 C 9.7 km/h
1069 02-05-2019 17:00:00 17.4 C 8.15 g/m*3 17.4 C 8.1 km/h
1070 02-05-2019 17:05:00 17.6 C 8.1 g/m*3 17.6 C 8.1 km/h
1071 02-05-2019 17:10:00 17.6 C 7.8 g/m*3 17.6 C 9.7 km/h
1072 02-05-2019 17:15:00 17.4 C 7.71 g/m*3 17.4 C 9.7 km/h
1073 02-05-2019 17:20:00 17.3 C 7.96 g/m*3 17.3 C 8.1 km/h
1074 02-05-2019 17:25:00 17.6 C 8.1 g/m*3 17.6 C 11.3 km/h
1075 02-05-2019 17:30:00 17.7 C 7.85 g/m*3 17.7 C 9.7 km/h
Sensor: Nr:Datum:Temp:Abs-Feuchte:Windchill:Wind:
Aussen-T/F 1076 02-05-2019 17:35:00 17.6 C 7.65 g/m*3 17.6 C 6.4 km/h
1077 02-05-2019 17:40:00 17.7 C 7.69 g/m*3 17.7 C 6.4 km/h
1078 02-05-2019 17:45:00 18.1 C 7.73 g/m*3 18.1 C 9.7 km/h
1079 02-05-2019 17:50:00 18.4 C 7.39 g/m*3 18.4 C 12.9 km/h
1080 02-05-2019 17:55:00 18.6 C 7.32 g/m*3 18.6 C 11.3 km/h
1081 02-05-2019 18:00:00 18.4 C 7.39 g/m*3 18.4 C 9.7 km/h
1082 02-05-2019 18:05:00 18.5 C 7.28 g/m*3 18.5 C 9.7 km/h
1083 02-05-2019 18:10:00 18.4 C 7.24 g/m*3 18.4 C 12.9 km/h
1084 02-05-2019 18:15:00 18.4 C 7.24 g/m*3 18.4 C 11.3 km/h
1085 02-05-2019 18:20:00 18.3 C 7.35 g/m*3 18.3 C 8.1 km/h
1086 02-05-2019 18:25:00 18.1 C 7.11 g/m*3 18.1 C 11.3 km/h
1087 02-05-2019 18:30:00 17.8 C 7.13 g/m*3 17.8 C 9.7 km/h
1088 02-05-2019 18:35:00 17.7 C 7.09 g/m*3 17.7 C 8.1 km/h
1089 02-05-2019 18:40:00 17.6 C 7.2 g/m*3 17.6 C 8.1 km/h
1090 02-05-2019 18:45:00 17.5 C 7.16 g/m*3 17.5 C 9.7 km/h
1091 02-05-2019 18:50:00 17.5 C 7.01 g/m*3 17.5 C 6.4 km/h
1092 02-05-2019 18:55:00 17.4 C 6.97 g/m*3 17.4 C 8.1 km/h
1093 02-05-2019 19:00:00 17.3 C 7.07 g/m*3 17.3 C 9.7 km/h
1094 02-05-2019 19:05:00 17 C 6.95 g/m*3 17 C 12.9 km/h
1095 02-05-2019 19:10:00 16.7 C 7.11 g/m*3 16.7 C 8.1 km/h
1096 02-05-2019 19:15:00 16.4 C 7.82 g/m*3 16.4 C 16.1 km/h
1097 02-05-2019 19:20:00 15.9 C 8.13 g/m*3 15.9 C 16.1 km/h
1098 02-05-2019 19:25:00 15.4 C 8.28 g/m*3 15.4 C 17.7 km/h
1099 02-05-2019 19:30:00 15.1 C 8.39 g/m*3 15.1 C 9.7 km/h
1100 02-05-2019 19:35:00 14.9 C 8.41 g/m*3 14.9 C 9.7 km/h
Sensor: Nr:Datum:Temp:Abs-Feuchte:Windchill:Wind:
Aussen-T/F 1101 02-05-2019 19:40:00 14.7 C 8.31 g/m*3 14.7 C 12.9 km/h
1102 02-05-2019 19:45:00 14.6 C 8.26 g/m*3 14.6 C 14.5 km/h
1103 02-05-2019 19:50:00 14.4 C 8.28 g/m*3 14.4 C 14.5 km/h
1104 02-05-2019 19:55:00 14.1 C 8.25 g/m*3 14.1 C 12.9 km/h
1105 02-05-2019 20:00:00 13.8 C 8.22 g/m*3 13.8 C 12.9 km/h
1106 02-05-2019 20:05:00 13.5 C 8.3 g/m*3 13.5 C 16.1 km/h
1107 02-05-2019 20:10:00 13.3 C 8.55 g/m*3 13.3 C 9.7 km/h
1108 02-05-2019 20:15:00 13.1 C 8.56 g/m*3 13.1 C 6.4 km/h
1109 02-05-2019 20:20:00 12.9 C 8.57 g/m*3 12.9 C 12.9 km/h
1110 02-05-2019 20:25:00 12.7 C 8.57 g/m*3 12.7 C 6.4 km/h
1111 02-05-2019 20:30:00 12.6 C 8.63 g/m*3 12.6 C 3.2 km/h
1112 02-05-2019 20:35:00 12.5 C 8.69 g/m*3 12.5 C 4.8 km/h
1113 02-05-2019 20:40:00 12.4 C 8.74 g/m*3 12.4 C 6.4 km/h
1114 02-05-2019 20:45:00 12.3 C 8.8 g/m*3 12.3 C 4.8 km/h
1115 02-05-2019 20:50:00 12.2 C 8.74 g/m*3 12.2 C 3.2 km/h
1116 02-05-2019 20:55:00 12.1 C 8.79 g/m*3 12.1 C 11.3 km/h
1117 02-05-2019 21:00:00 12 C 8.85 g/m*3 12 C 0 km/h
1118 02-05-2019 21:05:00 11.9 C 9 g/m*3 11.9 C 0 km/h
1119 02-05-2019 21:10:00 11.8 C 9.16 g/m*3 11.8 C 0 km/h
1120 02-05-2019 21:15:00 11.7 C 9.2 g/m*3 11.7 C 0 km/h
1121 02-05-2019 21:20:00 11.6 C 9.15 g/m*3 11.6 C 0 km/h
1122 02-05-2019 21:25:00 11.4 C 9.14 g/m*3 11.4 C 0 km/h
1123 02-05-2019 21:30:00 11.3 C 9.08 g/m*3 11.3 C 1.6 km/h
1124 02-05-2019 21:35:00 11.2 C 9.12 g/m*3 11.2 C 1.6 km/h
1125 02-05-2019 21:40:00 11.2 C 9.12 g/m*3 11.2 C 0 km/h
Sensor: Nr:Datum:Temp:Abs-Feuchte:Windchill:Wind:
Aussen-T/F 1126 02-05-2019 21:45:00 11.1 C 9.17 g/m*3 11.1 C 1.6 km/h
1127 02-05-2019 21:50:00 11.1 C 9.17 g/m*3 11.1 C 0 km/h
1128 02-05-2019 21:55:00 11 C 9.11 g/m*3 11 C 0 km/h
1129 02-05-2019 22:00:00 10.9 C 9.05 g/m*3 10.9 C 3.2 km/h
1130 02-05-2019 22:05:00 10.8 C 8.9 g/m*3 10.8 C 3.2 km/h
1131 02-05-2019 22:10:00 10.8 C 8.99 g/m*3 10.8 C 3.2 km/h
1132 02-05-2019 22:15:00 10.8 C 8.99 g/m*3 10.8 C 4.8 km/h
1133 02-05-2019 22:20:00 10.8 C 8.99 g/m*3 10.8 C 0 km/h
1134 02-05-2019 22:25:00 10.8 C 8.99 g/m*3 10.8 C 4.8 km/h
1135 02-05-2019 22:30:00 10.7 C 8.94 g/m*3 10.7 C 0 km/h
1136 02-05-2019 22:35:00 10.7 C 8.94 g/m*3 10.7 C 1.6 km/h
1137 02-05-2019 22:40:00 10.7 C 8.94 g/m*3 10.7 C 0 km/h
1138 02-05-2019 22:45:00 10.7 C 8.94 g/m*3 10.7 C 4.8 km/h
1139 02-05-2019 22:50:00 10.7 C 8.94 g/m*3 10.7 C 4.8 km/h
1140 02-05-2019 22:55:00 10.7 C 8.94 g/m*3 10.7 C 4.8 km/h
1141 02-05-2019 23:00:00 10.7 C 8.94 g/m*3 10.7 C 1.6 km/h
1142 02-05-2019 23:05:00 10.7 C 8.94 g/m*3 10.7 C 0 km/h
1143 02-05-2019 23:10:00 10.7 C 8.94 g/m*3 10.7 C 3.2 km/h
1144 02-05-2019 23:15:00 10.7 C 8.94 g/m*3 10.7 C 0 km/h
1145 02-05-2019 23:20:00 10.7 C 9.04 g/m*3 10.7 C 0 km/h
1146 02-05-2019 23:25:00 10.7 C 9.04 g/m*3 10.7 C 0 km/h
1147 02-05-2019 23:30:00 10.7 C 9.04 g/m*3 10.7 C 0 km/h
1148 02-05-2019 23:35:00 10.7 C 9.04 g/m*3 10.7 C 0 km/h
1149 02-05-2019 23:40:00 10.7 C 9.04 g/m*3 10.7 C 0 km/h
1150 02-05-2019 23:45:00 10.7 C 9.04 g/m*3 10.7 C 1.6 km/h
Sensor: Nr:Datum:Temp:Abs-Feuchte:Windchill:Wind:
Aussen-T/F 1151 02-05-2019 23:50:00 10.7 C 9.04 g/m*3 10.7 C 0 km/h
1152 02-05-2019 23:55:00 10.7 C 9.13 g/m*3 10.7 C 0 km/h
1153 03-05-2019 00:00:00 10.6 C 9.08 g/m*3 10.6 C 0 km/h
1154 03-05-2019 00:05:00 10.6 C 9.08 g/m*3 10.6 C 4.8 km/h
1155 03-05-2019 00:10:00 10.6 C 9.08 g/m*3 10.6 C 0 km/h
1156 03-05-2019 00:15:00 10.6 C 9.08 g/m*3 10.6 C 0 km/h
1157 03-05-2019 00:20:00 10.6 C 9.08 g/m*3 10.6 C 0 km/h
1158 03-05-2019 00:25:00 10.6 C 9.08 g/m*3 10.6 C 1.6 km/h
1159 03-05-2019 00:30:00 10.6 C 9.08 g/m*3 10.6 C 0 km/h
1160 03-05-2019 00:35:00 10.6 C 8.98 g/m*3 10.06 C 6.4 km/h
1161 03-05-2019 00:40:00 10.6 C 8.98 g/m*3 10.06 C 6.4 km/h
1162 03-05-2019 00:45:00 10.6 C 8.88 g/m*3 10.06 C 6.4 km/h
1163 03-05-2019 00:50:00 10.6 C 8.88 g/m*3 10.6 C 4.8 km/h
1164 03-05-2019 00:55:00 10.6 C 8.88 g/m*3 10.6 C 4.8 km/h
1165 03-05-2019 01:00:00 10.6 C 8.78 g/m*3 10.6 C 3.2 km/h
1166 03-05-2019 01:05:00 10.7 C 8.84 g/m*3 9.81 C 8.1 km/h
1167 03-05-2019 01:10:00 10.6 C 8.69 g/m*3 9.69 C 8.1 km/h
1168 03-05-2019 01:15:00 10.6 C 8.59 g/m*3 8.71 C 14.5 km/h
1169 03-05-2019 01:20:00 10.6 C 8.49 g/m*3 8.71 C 14.5 km/h
1170 03-05-2019 01:25:00 10.6 C 8.49 g/m*3 9.69 C 8.1 km/h
1171 03-05-2019 01:30:00 10.6 C 8.39 g/m*3 9.4 C 9.7 km/h
1172 03-05-2019 01:35:00 10.5 C 8.34 g/m*3 9.57 C 8.1 km/h
1173 03-05-2019 01:40:00 10.4 C 8.19 g/m*3 9.46 C 8.1 km/h
1174 03-05-2019 01:45:00 10.4 C 8.19 g/m*3 10.4 C 3.2 km/h
1175 03-05-2019 01:50:00 10.3 C 8.04 g/m*3 8.78 C 11.3 km/h
Sensor: Nr:Datum:Temp:Abs-Feuchte:Windchill:Wind:
Aussen-T/F 1176 03-05-2019 01:55:00 10.3 C 7.95 g/m*3 9.04 C 9.7 km/h
1177 03-05-2019 02:00:00 10.3 C 7.95 g/m*3 9.72 C 6.4 km/h
1178 03-05-2019 02:05:00 10.2 C 7.9 g/m*3 9.22 C 8.1 km/h
1179 03-05-2019 02:10:00 10.1 C 7.85 g/m*3 8.54 C 11.3 km/h
1180 03-05-2019 02:15:00 9.9 C 7.75 g/m*3 8.87 C 8.1 km/h
1181 03-05-2019 02:20:00 9.8 C 7.79 g/m*3 8.75 C 8.1 km/h
1182 03-05-2019 02:25:00 9.8 C 7.79 g/m*3 8.75 C 8.1 km/h
1183 03-05-2019 02:30:00 9.8 C 7.89 g/m*3 9.8 C 1.6 km/h
1184 03-05-2019 02:35:00 9.7 C 7.84 g/m*3 9.7 C 1.6 km/h
1185 03-05-2019 02:40:00 9.7 C 7.84 g/m*3 9.7 C 0 km/h
1186 03-05-2019 02:45:00 9.7 C 7.84 g/m*3 9.7 C 1.6 km/h
1187 03-05-2019 02:50:00 9.6 C 7.79 g/m*3 7.48 C 14.5 km/h
1188 03-05-2019 02:55:00 9.6 C 7.79 g/m*3 9.6 C 1.6 km/h
1189 03-05-2019 03:00:00 9.5 C 7.74 g/m*3 9.5 C 4.8 km/h
1190 03-05-2019 03:05:00 9.5 C 7.74 g/m*3 9.5 C 4.8 km/h
1191 03-05-2019 03:10:00 9.4 C 7.69 g/m*3 9.4 C 3.2 km/h
1192 03-05-2019 03:15:00 9.4 C 7.69 g/m*3 7.97 C 9.7 km/h
1193 03-05-2019 03:20:00 9.4 C 7.78 g/m*3 9.4 C 0 km/h
1194 03-05-2019 03:25:00 9.4 C 7.78 g/m*3 9.4 C 1.6 km/h
1195 03-05-2019 03:30:00 9.4 C 7.78 g/m*3 9.4 C 1.6 km/h
1196 03-05-2019 03:35:00 9.3 C 7.73 g/m*3 9.3 C 4.8 km/h
1197 03-05-2019 03:40:00 9.3 C 7.73 g/m*3 9.3 C 1.6 km/h
1198 03-05-2019 03:45:00 9.3 C 7.73 g/m*3 9.3 C 0 km/h
1199 03-05-2019 03:50:00 9.3 C 7.73 g/m*3 9.3 C 0 km/h
1200 03-05-2019 03:55:00 9.3 C 7.82 g/m*3 9.3 C 0 km/h
Sensor: Nr:Datum:Temp:Abs-Feuchte:Windchill:Wind:
Aussen-T/F 1201 03-05-2019 04:00:00 9.3 C 7.82 g/m*3 9.3 C 0 km/h
1202 03-05-2019 04:05:00 9.2 C 7.77 g/m*3 9.2 C 0 km/h
1203 03-05-2019 04:10:00 9.2 C 7.77 g/m*3 9.2 C 0 km/h
1204 03-05-2019 04:15:00 9.2 C 7.77 g/m*3 9.2 C 0 km/h
1205 03-05-2019 04:20:00 9.2 C 7.86 g/m*3 9.2 C 0 km/h
1206 03-05-2019 04:25:00 9.2 C 7.86 g/m*3 9.2 C 0 km/h
1207 03-05-2019 04:30:00 9.1 C 7.81 g/m*3 9.1 C 0 km/h
1208 03-05-2019 04:35:00 9.1 C 7.81 g/m*3 9.1 C 0 km/h
1209 03-05-2019 04:40:00 9.1 C 7.81 g/m*3 9.1 C 3.2 km/h
1210 03-05-2019 04:45:00 9.1 C 7.81 g/m*3 9.1 C 0 km/h
1211 03-05-2019 04:50:00 9.1 C 7.81 g/m*3 9.1 C 3.2 km/h
1212 03-05-2019 04:55:00 9.2 C 7.86 g/m*3 9.2 C 0 km/h
1213 03-05-2019 05:00:00 9.2 C 7.86 g/m*3 9.2 C 3.2 km/h
1214 03-05-2019 05:05:00 9.2 C 7.86 g/m*3 9.2 C 1.6 km/h
1215 03-05-2019 05:10:00 9.3 C 7.91 g/m*3 8.56 C 6.4 km/h
1216 03-05-2019 05:15:00 9.3 C 7.91 g/m*3 8.56 C 6.4 km/h
1217 03-05-2019 05:20:00 9.3 C 7.91 g/m*3 8.56 C 6.4 km/h
1218 03-05-2019 05:25:00 9.3 C 7.91 g/m*3 9.3 C 0 km/h
1219 03-05-2019 05:30:00 9.3 C 7.91 g/m*3 9.3 C 1.6 km/h
1220 03-05-2019 05:35:00 9.3 C 7.91 g/m*3 9.3 C 3.2 km/h
1221 03-05-2019 05:40:00 9.3 C 7.91 g/m*3 9.3 C 1.6 km/h
1222 03-05-2019 05:45:00 9.3 C 7.91 g/m*3 9.3 C 3.2 km/h
1223 03-05-2019 05:50:00 9.3 C 7.91 g/m*3 9.3 C 4.8 km/h
1224 03-05-2019 05:55:00 9.3 C 7.91 g/m*3 9.3 C 3.2 km/h
1225 03-05-2019 06:00:00 9.3 C 7.91 g/m*3 9.3 C 0 km/h
Sensor: Nr:Datum:Temp:Abs-Feuchte:Windchill:Wind:
Aussen-T/F 1226 03-05-2019 06:05:00 9.3 C 7.91 g/m*3 8.56 C 6.4 km/h
1227 03-05-2019 06:10:00 9.3 C 7.91 g/m*3 9.3 C 3.2 km/h
1228 03-05-2019 06:15:00 9.2 C 7.86 g/m*3 9.2 C 4.8 km/h
1229 03-05-2019 06:20:00 9.2 C 7.86 g/m*3 9.2 C 1.6 km/h
1230 03-05-2019 06:25:00 9.2 C 7.86 g/m*3 9.2 C 3.2 km/h
1231 03-05-2019 06:30:00 9.2 C 7.77 g/m*3 8.45 C 6.4 km/h
1232 03-05-2019 06:35:00 9.2 C 7.77 g/m*3 8.05 C 8.1 km/h
1233 03-05-2019 06:40:00 9.2 C 7.77 g/m*3 9.2 C 1.6 km/h
1234 03-05-2019 06:45:00 9.3 C 7.91 g/m*3 9.3 C 1.6 km/h
1235 03-05-2019 06:50:00 9.3 C 7.91 g/m*3 9.3 C 1.6 km/h
1236 03-05-2019 06:55:00 9.3 C 7.91 g/m*3 9.3 C 3.2 km/h
1237 03-05-2019 07:00:00 9.2 C 7.86 g/m*3 9.2 C 1.6 km/h
1238 03-05-2019 07:05:00 9.2 C 7.77 g/m*3 9.2 C 4.8 km/h
1239 03-05-2019 07:10:00 9.2 C 7.77 g/m*3 9.2 C 4.8 km/h
1240 03-05-2019 07:15:00 9.2 C 7.68 g/m*3 8.45 C 6.4 km/h
1241 03-05-2019 07:20:00 9.2 C 7.68 g/m*3 9.2 C 4.8 km/h
1242 03-05-2019 07:25:00 9.3 C 7.73 g/m*3 8.16 C 8.1 km/h
1243 03-05-2019 07:30:00 9.2 C 7.59 g/m*3 8.05 C 8.1 km/h
1244 03-05-2019 07:35:00 9.3 C 7.64 g/m*3 9.3 C 0 km/h
1245 03-05-2019 07:40:00 9.3 C 7.64 g/m*3 7.85 C 9.7 km/h
1246 03-05-2019 07:45:00 9.3 C 7.64 g/m*3 8.16 C 8.1 km/h
1247 03-05-2019 07:50:00 9.3 C 7.55 g/m*3 8.56 C 6.4 km/h
1248 03-05-2019 07:55:00 9.3 C 7.55 g/m*3 9.3 C 4.8 km/h
1249 03-05-2019 08:00:00 9.4 C 7.69 g/m*3 9.4 C 0 km/h
1250 03-05-2019 08:05:00 9.5 C 7.74 g/m*3 8.79 C 6.4 km/h
Sensor: Nr:Datum:Temp:Abs-Feuchte:Windchill:Wind:
Aussen-T/F 1251 03-05-2019 08:10:00 9.6 C 7.69 g/m*3 9.6 C 1.6 km/h
1252 03-05-2019 08:15:00 9.7 C 7.74 g/m*3 8.63 C 8.1 km/h
1253 03-05-2019 08:20:00 9.8 C 7.79 g/m*3 9.14 C 6.4 km/h
1254 03-05-2019 08:25:00 9.8 C 7.79 g/m*3 9.14 C 6.4 km/h
1255 03-05-2019 08:30:00 9.7 C 7.65 g/m*3 8.63 C 8.1 km/h
1256 03-05-2019 08:35:00 9.7 C 7.65 g/m*3 9.02 C 6.4 km/h
1257 03-05-2019 08:40:00 9.7 C 7.56 g/m*3 8.33 C 9.7 km/h
1258 03-05-2019 08:45:00 9.6 C 7.6 g/m*3 9.6 C 1.6 km/h
1259 03-05-2019 08:50:00 9.7 C 7.65 g/m*3 9.02 C 6.4 km/h
1260 03-05-2019 08:55:00 9.7 C 7.56 g/m*3 8.63 C 8.1 km/h
1261 03-05-2019 09:00:00 9.7 C 7.56 g/m*3 8.63 C 8.1 km/h
1262 03-05-2019 09:05:00 9.8 C 7.61 g/m*3 7.73 C 14.5 km/h
1263 03-05-2019 09:10:00 9.9 C 7.56 g/m*3 8.3 C 11.3 km/h
1264 03-05-2019 09:15:00 10 C 7.52 g/m*3 8.68 C 9.7 km/h
1265 03-05-2019 09:20:00 10.1 C 7.56 g/m*3 9.1 C 8.1 km/h
1266 03-05-2019 09:25:00 10.1 C 7.56 g/m*3 8.31 C 12.9 km/h
1267 03-05-2019 09:30:00 10.1 C 7.47 g/m*3 9.1 C 8.1 km/h
1268 03-05-2019 09:35:00 10.1 C 7.47 g/m*3 9.1 C 8.1 km/h
1269 03-05-2019 09:40:00 10.2 C 7.52 g/m*3 10.2 C 4.8 km/h
1270 03-05-2019 09:45:00 10.3 C 7.47 g/m*3 9.04 C 9.7 km/h
1271 03-05-2019 09:50:00 10.4 C 7.61 g/m*3 9.46 C 8.1 km/h
1272 03-05-2019 09:55:00 10.6 C 7.32 g/m*3 9.4 C 9.7 km/h
1273 03-05-2019 10:00:00 10.7 C 7.27 g/m*3 9.04 C 12.9 km/h
1274 03-05-2019 10:05:00 10.7 C 7.17 g/m*3 9.04 C 12.9 km/h
1275 03-05-2019 10:10:00 10.7 C 7.37 g/m*3 9.52 C 9.7 km/h
Sensor: Nr:Datum:Temp:Abs-Feuchte:Windchill:Wind:
Aussen-T/F 1276 03-05-2019 10:15:00 10.7 C 7.37 g/m*3 9.26 C 11.3 km/h
1277 03-05-2019 10:20:00 10.7 C 7.46 g/m*3 9.52 C 9.7 km/h
1278 03-05-2019 10:25:00 10.7 C 7.27 g/m*3 9.26 C 11.3 km/h
1279 03-05-2019 10:30:00 10.8 C 7.51 g/m*3 10.8 C 4.8 km/h
1280 03-05-2019 10:35:00 10.9 C 7.36 g/m*3 9.08 C 14.5 km/h
1281 03-05-2019 10:40:00 10.8 C 7.12 g/m*3 9.38 C 11.3 km/h
1282 03-05-2019 10:45:00 10.8 C 7.22 g/m*3 9.38 C 11.3 km/h
1283 03-05-2019 10:50:00 10.9 C 7.06 g/m*3 9.76 C 9.7 km/h
1284 03-05-2019 10:55:00 11 C 7.21 g/m*3 9.21 C 14.5 km/h
1285 03-05-2019 11:00:00 11.1 C 7.05 g/m*3 11.1 C 14.5 km/h
1286 03-05-2019 11:05:00 11.1 C 6.95 g/m*3 11.1 C 12.9 km/h
1287 03-05-2019 11:10:00 11.2 C 6.99 g/m*3 11.2 C 8.1 km/h
1288 03-05-2019 11:15:00 11.3 C 7.14 g/m*3 11.3 C 9.7 km/h
1289 03-05-2019 11:20:00 11.4 C 7.08 g/m*3 11.4 C 6.4 km/h
1290 03-05-2019 11:25:00 11.4 C 6.98 g/m*3 11.4 C 8.1 km/h
1291 03-05-2019 11:30:00 11.3 C 6.94 g/m*3 11.3 C 8.1 km/h
1292 03-05-2019 11:35:00 11.1 C 6.95 g/m*3 11.1 C 12.9 km/h
1293 03-05-2019 11:40:00 10.9 C 6.86 g/m*3 9.51 C 11.3 km/h
1294 03-05-2019 11:45:00 10.9 C 6.96 g/m*3 9.51 C 11.3 km/h
1295 03-05-2019 11:50:00 11.1 C 6.95 g/m*3 11.1 C 11.3 km/h
1296 03-05-2019 11:55:00 11.2 C 6.99 g/m*3 11.2 C 12.9 km/h
1297 03-05-2019 12:00:00 11.1 C 6.95 g/m*3 11.1 C 8.1 km/h
1298 03-05-2019 12:05:00 11 C 6.91 g/m*3 9.88 C 9.7 km/h
1299 03-05-2019 12:10:00 10.9 C 6.96 g/m*3 10.41 C 6.4 km/h
1300 03-05-2019 12:15:00 10.9 C 6.86 g/m*3 10.04 C 8.1 km/h
Sensor: Nr:Datum:Temp:Abs-Feuchte:Windchill:Wind:
Aussen-T/F 1301 03-05-2019 12:20:00 10.9 C 6.86 g/m*3 9.76 C 9.7 km/h
1302 03-05-2019 12:25:00 11.1 C 7.05 g/m*3 11.1 C 4.8 km/h
1303 03-05-2019 12:30:00 11.3 C 7.24 g/m*3 11.3 C 9.7 km/h
1304 03-05-2019 12:35:00 11.6 C 7.38 g/m*3 11.6 C 8.1 km/h
1305 03-05-2019 12:40:00 11.8 C 7.05 g/m*3 11.8 C 9.7 km/h
1306 03-05-2019 12:45:00 11.8 C 7.16 g/m*3 11.8 C 9.7 km/h
1307 03-05-2019 12:50:00 11.9 C 7.1 g/m*3 11.9 C 11.3 km/h
1308 03-05-2019 12:55:00 11.8 C 7.05 g/m*3 11.8 C 8.1 km/h
1309 03-05-2019 13:00:00 11.8 C 7.05 g/m*3 11.8 C 9.7 km/h
1310 03-05-2019 13:05:00 11.8 C 6.95 g/m*3 11.8 C 9.7 km/h
1311 03-05-2019 13:10:00 11.8 C 6.95 g/m*3 11.8 C 4.8 km/h
1312 03-05-2019 13:15:00 11.8 C 6.95 g/m*3 11.8 C 9.7 km/h
1313 03-05-2019 13:20:00 11.9 C 6.88 g/m*3 11.9 C 8.1 km/h
1314 03-05-2019 13:25:00 12.1 C 7.08 g/m*3 12.1 C 9.7 km/h
1315 03-05-2019 13:30:00 12.2 C 7.12 g/m*3 12.2 C 14.5 km/h
1316 03-05-2019 13:35:00 12.3 C 7.17 g/m*3 12.3 C 6.4 km/h
1317 03-05-2019 13:40:00 12.4 C 6.99 g/m*3 12.4 C 12.9 km/h
1318 03-05-2019 13:45:00 12.3 C 6.95 g/m*3 12.3 C 8.1 km/h
1319 03-05-2019 13:50:00 12.2 C 6.91 g/m*3 12.2 C 14.5 km/h
1320 03-05-2019 13:55:00 12.3 C 7.28 g/m*3 12.3 C 11.3 km/h
1321 03-05-2019 14:00:00 12.6 C 7.19 g/m*3 12.6 C 8.1 km/h
1322 03-05-2019 14:05:00 12.8 C 6.94 g/m*3 12.8 C 12.9 km/h
1323 03-05-2019 14:10:00 12.9 C 6.88 g/m*3 12.9 C 12.9 km/h
1324 03-05-2019 14:15:00 12.9 C 6.76 g/m*3 12.9 C 12.9 km/h
1325 03-05-2019 14:20:00 12.7 C 6.79 g/m*3 12.7 C 12.9 km/h
Sensor: Nr:Datum:Temp:Abs-Feuchte:Windchill:Wind:
Aussen-T/F 1326 03-05-2019 14:25:00 12.7 C 6.57 g/m*3 12.7 C 14.5 km/h
1327 03-05-2019 14:30:00 12.7 C 6.68 g/m*3 12.7 C 14.5 km/h
1328 03-05-2019 14:35:00 12.8 C 6.72 g/m*3 12.8 C 12.9 km/h
1329 03-05-2019 14:40:00 13.1 C 6.73 g/m*3 13.1 C 16.1 km/h
1330 03-05-2019 14:45:00 13.3 C 6.47 g/m*3 13.3 C 22.5 km/h
1331 03-05-2019 14:50:00 13.7 C 6.63 g/m*3 13.7 C 17.7 km/h
1332 03-05-2019 14:55:00 13.6 C 6.47 g/m*3 13.6 C 20.9 km/h
1333 03-05-2019 15:00:00 13.3 C 6.35 g/m*3 13.3 C 12.9 km/h
1334 03-05-2019 15:05:00 13.3 C 6.47 g/m*3 13.3 C 16.1 km/h
1335 03-05-2019 15:10:00 13.7 C 6.39 g/m*3 13.7 C 17.7 km/h
1336 03-05-2019 15:15:00 13.9 C 6.23 g/m*3 13.9 C 16.1 km/h
1337 03-05-2019 15:20:00 14.3 C 6.51 g/m*3 14.3 C 22.5 km/h
1338 03-05-2019 15:25:00 14.3 C 6.51 g/m*3 14.3 C 20.9 km/h
1339 03-05-2019 15:30:00 14.3 C 6.51 g/m*3 14.3 C 9.7 km/h
1340 03-05-2019 15:35:00 14.4 C 6.68 g/m*3 14.4 C 11.3 km/h
1341 03-05-2019 15:40:00 14.9 C 6.75 g/m*3 14.9 C 11.3 km/h
1342 03-05-2019 15:45:00 15.2 C 6.75 g/m*3 15.2 C 17.7 km/h
1343 03-05-2019 15:50:00 15.4 C 6.57 g/m*3 15.4 C 11.3 km/h
1344 03-05-2019 15:55:00 15.6 C 6.65 g/m*3 15.6 C 12.9 km/h
1345 03-05-2019 16:00:00 15.6 C 6.52 g/m*3 15.6 C 16.1 km/h
1346 03-05-2019 16:05:00 15.3 C 6.53 g/m*3 15.3 C 12.9 km/h
1347 03-05-2019 16:10:00 15.4 C 6.57 g/m*3 15.4 C 14.5 km/h
1348 03-05-2019 16:15:00 15.4 C 6.44 g/m*3 15.4 C 17.7 km/h
1349 03-05-2019 16:20:00 15.3 C 6.53 g/m*3 15.3 C 12.9 km/h
1350 03-05-2019 16:25:00 15 C 6.54 g/m*3 15 C 16.1 km/h
Sensor: Nr:Datum:Temp:Abs-Feuchte:Windchill:Wind:
Aussen-T/F 1351 03-05-2019 16:30:00 14.7 C 6.42 g/m*3 14.7 C 14.5 km/h
1352 03-05-2019 16:35:00 14.3 C 6.39 g/m*3 14.3 C 11.3 km/h
1353 03-05-2019 16:40:00 14.1 C 6.43 g/m*3 14.1 C 11.3 km/h
1354 03-05-2019 16:45:00 14.4 C 6.68 g/m*3 14.4 C 8.1 km/h
1355 03-05-2019 16:50:00 15.2 C 6.88 g/m*3 15.2 C 14.5 km/h
1356 03-05-2019 16:55:00 15.3 C 6.53 g/m*3 15.3 C 8.1 km/h
1357 03-05-2019 17:00:00 15.2 C 6.62 g/m*3 15.2 C 11.3 km/h
1358 03-05-2019 17:05:00 15.1 C 6.84 g/m*3 15.1 C 12.9 km/h
1359 03-05-2019 17:10:00 14.8 C 6.33 g/m*3 14.8 C 16.1 km/h
1360 03-05-2019 17:15:00 14.5 C 6.47 g/m*3 14.5 C 17.7 km/h
1361 03-05-2019 17:20:00 14.2 C 6.35 g/m*3 14.2 C 14.5 km/h
1362 03-05-2019 17:25:00 14 C 6.51 g/m*3 14 C 12.9 km/h
1363 03-05-2019 17:30:00 13.8 C 6.67 g/m*3 13.8 C 14.5 km/h
1364 03-05-2019 17:35:00 13.8 C 6.67 g/m*3 13.8 C 12.9 km/h
1365 03-05-2019 17:40:00 13.7 C 6.63 g/m*3 13.7 C 16.1 km/h
1366 03-05-2019 17:45:00 13.5 C 6.55 g/m*3 13.5 C 9.7 km/h
1367 03-05-2019 17:50:00 13.5 C 6.55 g/m*3 13.5 C 11.3 km/h
1368 03-05-2019 17:55:00 13.4 C 6.39 g/m*3 13.4 C 12.9 km/h
1369 03-05-2019 18:00:00 13.3 C 6.47 g/m*3 13.3 C 11.3 km/h
1370 03-05-2019 18:05:00 13.4 C 6.51 g/m*3 13.4 C 11.3 km/h
1371 03-05-2019 18:10:00 13.6 C 6.71 g/m*3 13.6 C 11.3 km/h
1372 03-05-2019 18:15:00 13.9 C 6.59 g/m*3 13.9 C 11.3 km/h
1373 03-05-2019 18:20:00 14 C 6.63 g/m*3 14 C 11.3 km/h
1374 03-05-2019 18:25:00 13.9 C 6.59 g/m*3 13.9 C 11.3 km/h
1375 03-05-2019 18:30:00 13.8 C 6.67 g/m*3 13.8 C 9.7 km/h
Sensor: Nr:Datum:Temp:Abs-Feuchte:Windchill:Wind:
Aussen-T/F 1376 03-05-2019 18:35:00 13.8 C 6.67 g/m*3 13.8 C 8.1 km/h
1377 03-05-2019 18:40:00 13.7 C 6.75 g/m*3 13.7 C 8.1 km/h
1378 03-05-2019 18:45:00 13.6 C 6.71 g/m*3 13.6 C 11.3 km/h
1379 03-05-2019 18:50:00 13.4 C 6.74 g/m*3 13.4 C 6.4 km/h
1380 03-05-2019 18:55:00 13.3 C 6.7 g/m*3 13.3 C 11.3 km/h
1381 03-05-2019 19:00:00 13.1 C 6.73 g/m*3 13.1 C 8.1 km/h
1382 03-05-2019 19:05:00 12.9 C 6.65 g/m*3 12.9 C 11.3 km/h
1383 03-05-2019 19:10:00 12.7 C 6.57 g/m*3 12.7 C 8.1 km/h
1384 03-05-2019 19:15:00 12.6 C 6.64 g/m*3 12.6 C 8.1 km/h
1385 03-05-2019 19:20:00 12.5 C 6.71 g/m*3 12.5 C 9.7 km/h
1386 03-05-2019 19:25:00 12.4 C 6.56 g/m*3 12.4 C 6.4 km/h
1387 03-05-2019 19:30:00 12.4 C 6.56 g/m*3 12.4 C 6.4 km/h
1388 03-05-2019 19:35:00 12.3 C 6.41 g/m*3 12.3 C 8.1 km/h
1389 03-05-2019 19:40:00 12.2 C 6.37 g/m*3 12.2 C 9.7 km/h
1390 03-05-2019 19:45:00 12 C 6.5 g/m*3 12 C 6.4 km/h
1391 03-05-2019 19:50:00 11.9 C 6.46 g/m*3 11.9 C 9.7 km/h
1392 03-05-2019 19:55:00 11.8 C 6.53 g/m*3 11.8 C 4.8 km/h
1393 03-05-2019 20:00:00 11.7 C 6.48 g/m*3 11.7 C 4.8 km/h
1394 03-05-2019 20:05:00 11.7 C 6.48 g/m*3 11.7 C 4.8 km/h
1395 03-05-2019 20:10:00 11.6 C 6.44 g/m*3 11.6 C 9.7 km/h
1396 03-05-2019 20:15:00 11.5 C 6.51 g/m*3 11.5 C 3.2 km/h
1397 03-05-2019 20:20:00 11.4 C 6.47 g/m*3 11.4 C 6.4 km/h
1398 03-05-2019 20:25:00 11.3 C 6.53 g/m*3 11.3 C 3.2 km/h
1399 03-05-2019 20:30:00 11.3 C 6.53 g/m*3 11.3 C 4.8 km/h
1400 03-05-2019 20:35:00 11.2 C 6.59 g/m*3 11.2 C 11.3 km/h
Sensor: Nr:Datum:Temp:Abs-Feuchte:Windchill:Wind:
Aussen-T/F 1401 03-05-2019 20:40:00 11 C 6.51 g/m*3 9.63 C 11.3 km/h
1402 03-05-2019 20:45:00 10.7 C 6.48 g/m*3 9.26 C 11.3 km/h
1403 03-05-2019 20:50:00 10.5 C 6.5 g/m*3 9.57 C 8.1 km/h
1404 03-05-2019 20:55:00 10.3 C 6.51 g/m*3 9.34 C 8.1 km/h
1405 03-05-2019 21:00:00 10.2 C 6.47 g/m*3 9.6 C 6.4 km/h
1406 03-05-2019 21:05:00 10.1 C 6.52 g/m*3 8.8 C 9.7 km/h
1407 03-05-2019 21:10:00 10 C 6.48 g/m*3 8.99 C 8.1 km/h
1408 03-05-2019 21:15:00 9.9 C 6.44 g/m*3 9.25 C 6.4 km/h
1409 03-05-2019 21:20:00 9.9 C 6.54 g/m*3 9.9 C 4.8 km/h
1410 03-05-2019 21:25:00 9.8 C 6.49 g/m*3 9.8 C 4.8 km/h
1411 03-05-2019 21:30:00 9.8 C 6.59 g/m*3 9.8 C 4.8 km/h
1412 03-05-2019 21:35:00 9.8 C 6.59 g/m*3 9.8 C 3.2 km/h
1413 03-05-2019 21:40:00 9.8 C 6.59 g/m*3 9.8 C 3.2 km/h
1414 03-05-2019 21:45:00 9.8 C 6.59 g/m*3 9.8 C 0 km/h
1415 03-05-2019 21:50:00 9.7 C 6.55 g/m*3 9.7 C 1.6 km/h
1416 03-05-2019 21:55:00 9.7 C 6.64 g/m*3 9.7 C 4.8 km/h
1417 03-05-2019 22:00:00 9.7 C 6.64 g/m*3 9.7 C 1.6 km/h
1418 03-05-2019 22:05:00 9.7 C 6.64 g/m*3 9.7 C 0 km/h
1419 03-05-2019 22:10:00 9.6 C 6.69 g/m*3 9.6 C 0 km/h
1420 03-05-2019 22:15:00 9.6 C 6.78 g/m*3 9.6 C 0 km/h
1421 03-05-2019 22:20:00 9.5 C 6.74 g/m*3 9.5 C 3.2 km/h
1422 03-05-2019 22:25:00 9.4 C 6.87 g/m*3 9.4 C 1.6 km/h
1423 03-05-2019 22:30:00 9.3 C 6.74 g/m*3 8.56 C 6.4 km/h
1424 03-05-2019 22:35:00 9.2 C 6.7 g/m*3 8.45 C 6.4 km/h
1425 03-05-2019 22:40:00 9.2 C 6.79 g/m*3 9.2 C 3.2 km/h
Sensor: Nr:Datum:Temp:Abs-Feuchte:Windchill:Wind:
Aussen-T/F 1426 03-05-2019 22:45:00 9.1 C 6.65 g/m*3 7.93 C 8.1 km/h
1427 03-05-2019 22:50:00 9.1 C 6.65 g/m*3 9.1 C 3.2 km/h
1428 03-05-2019 22:55:00 9.1 C 6.65 g/m*3 9.1 C 3.2 km/h
1429 03-05-2019 23:00:00 9.1 C 6.74 g/m*3 9.1 C 3.2 km/h
1430 03-05-2019 23:05:00 8.9 C 6.66 g/m*3 8.9 C 3.2 km/h
1431 03-05-2019 23:10:00 8.9 C 6.75 g/m*3 8.9 C 3.2 km/h
1432 03-05-2019 23:15:00 8.9 C 6.75 g/m*3 8.9 C 0 km/h
1433 03-05-2019 23:20:00 8.8 C 6.79 g/m*3 8.8 C 0 km/h
1434 03-05-2019 23:25:00 8.7 C 6.83 g/m*3 8.7 C 0 km/h
1435 03-05-2019 23:30:00 8.6 C 6.79 g/m*3 8.6 C 0 km/h
1436 03-05-2019 23:35:00 8.6 C 6.87 g/m*3 8.6 C 0 km/h
1437 03-05-2019 23:40:00 8.4 C 6.79 g/m*3 8.4 C 0 km/h
1438 03-05-2019 23:45:00 8.4 C 6.79 g/m*3 8.4 C 0 km/h
1439 03-05-2019 23:50:00 8.3 C 6.83 g/m*3 8.3 C 0 km/h
1440 03-05-2019 23:55:00 8.3 C 6.74 g/m*3 8.3 C 0 km/h

Legende:
   Min
   Max


Maximal/Minimal-Werte vom 29.04.2019 - 03.05.2019

Sensor Min Max Avg
Temp
(Aussen-T/F)
3.1 °C
29-04-2019  06:30:00
21.8 °C
01-05-2019  16:40:00
11.57 °C
Abs-Feuchte
(Aussen-T/F)
5.7 g/m*3
29-04-2019  02:20:00
9.62 g/m*3
01-05-2019  13:00:00
7.75 g/m*3
Windchill
(Aussen-T/F)
1.63 C
29-04-2019  05:30:00
21.8 C
01-05-2019  16:40:00
11.47 C

Die Daten stammen von einer Davis Vantage Pro 2 Wetter-Station und werden unter Linux mit der Software wview2wettercgi und aufbereitet. Alle Angaben erfolgen ohne Gewähr für ihre Vollständigkeit oder Richtigkeit.
Kontakt: Rainer Krienke krienke@uni-koblenz.de . Meine Webseiten an der Uni Koblenz oder privat.
Version: $Revision: 0.78 $